Wetterdaten: Sonntag, 23.09.2018
Datum Zeit Temp. Aussen Temp. o. S. +5cm Feuchte Auss Luftdruck Regen Sonnenschein Regendauer Solar Windben Empfang
23.09.2018 00:00 10,9 C 10,0 C 10,0 C 95 % 1015,9 hPa 0,2 l/m 0 min 2 min 0 W/m 3,2 km/h (1 Bft) 95,74 %
23.09.2018 00:02 10,9 C 10,0 C 10,0 C 95 % 1016,0 hPa 0,0 l/m 0 min 2 min 0 W/m 0,0 km/h (0 Bft) 20,00 %
23.09.2018 00:04 10,9 C 10,0 C 10,0 C 95 % 1016,0 hPa 0,0 l/m 0 min 2 min 0 W/m 3,2 km/h (1 Bft) 65,71 %
23.09.2018 00:08 10,9 C 10,0 C 10,0 C 95 % 1015,8 hPa 0,0 l/m 0 min 4 min 0 W/m 6,4 km/h (2 Bft) 96,77 %
23.09.2018 00:10 10,9 C 10,0 C 10,0 C 95 % 1015,7 hPa 0,0 l/m 0 min 2 min 0 W/m 3,2 km/h (1 Bft) 97,87 %
23.09.2018 00:12 10,9 C 10,0 C 10,0 C 95 % 1015,7 hPa 0,0 l/m 0 min 2 min 0 W/m 3,2 km/h (1 Bft) 97,87 %
23.09.2018 00:14 10,9 C 10,0 C 10,0 C 95 % 1015,5 hPa 0,0 l/m 0 min 2 min 0 W/m 3,2 km/h (1 Bft) 97,87 %
23.09.2018 00:16 10,9 C 10,0 C 10,0 C 95 % 1015,6 hPa 0,0 l/m 0 min 2 min 0 W/m 3,2 km/h (1 Bft) 97,87 %
23.09.2018 00:18 10,9 C 10,0 C 10,0 C 95 % 1015,5 hPa 0,0 l/m 0 min 2 min 0 W/m 3,2 km/h (1 Bft) 97,87 %
23.09.2018 00:20 10,9 C 10,0 C 10,0 C 95 % 1015,5 hPa 0,0 l/m 0 min 2 min 0 W/m 3,2 km/h (1 Bft) 97,87 %
23.09.2018 00:22 10,9 C 10,0 C 10,0 C 95 % 1015,5 hPa 0,0 l/m 0 min 2 min 0 W/m 6,4 km/h (2 Bft) 97,87 %
23.09.2018 00:24 10,9 C 10,0 C 10,0 C 95 % 1015,4 hPa 0,0 l/m 0 min 2 min 0 W/m 3,2 km/h (1 Bft) 95,74 %
23.09.2018 00:26 10,9 C 10,0 C 10,0 C 95 % 1015,5 hPa 0,2 l/m 0 min 2 min 0 W/m 0,0 km/h (0 Bft) 95,74 %
23.09.2018 00:28 10,9 C 10,0 C 10,0 C 95 % 1015,5 hPa 0,0 l/m 0 min 2 min 0 W/m 6,4 km/h (2 Bft) 97,83 %
23.09.2018 00:30 10,9 C 10,0 C 10,0 C 95 % 1015,5 hPa 0,0 l/m 0 min 2 min 0 W/m 6,4 km/h (2 Bft) 97,87 %
23.09.2018 00:32 10,8 C 10,0 C 10,0 C 95 % 1015,5 hPa 0,0 l/m 0 min 2 min 0 W/m 6,4 km/h (2 Bft) 95,74 %
23.09.2018 00:34 10,8 C 10,0 C 10,0 C 95 % 1015,5 hPa 0,0 l/m 0 min 2 min 0 W/m 3,2 km/h (1 Bft) 95,74 %
23.09.2018 00:38 10,8 C 10,0 C 10,0 C 95 % 1015,4 hPa 0,0 l/m 0 min 0 min 0 W/m 6,4 km/h (2 Bft) 97,87 %
23.09.2018 00:40 10,8 C 10,0 C 10,0 C 95 % 1015,5 hPa 0,0 l/m 0 min 0 min 0 W/m 3,2 km/h (1 Bft) 97,83 %
23.09.2018 00:42 10,8 C 10,0 C 10,0 C 95 % 1015,4 hPa 0,0 l/m 0 min 0 min 0 W/m 3,2 km/h (1 Bft) 93,62 %
23.09.2018 00:44 10,8 C 10,0 C 10,0 C 95 % 1015,3 hPa 0,0 l/m 0 min 0 min 0 W/m 6,4 km/h (2 Bft) 100,00 %
23.09.2018 00:46 10,8 C 10,0 C 10,0 C 95 % 1015,2 hPa 0,0 l/m 0 min 0 min 0 W/m 6,4 km/h (2 Bft) 100,00 %
23.09.2018 00:48 10,8 C 9,4 C 10,0 C 95 % 1015,2 hPa 0,0 l/m 0 min 0 min 0 W/m 3,2 km/h (1 Bft) 95,74 %
23.09.2018 00:50 10,8 C 9,4 C 10,0 C 95 % 1015,2 hPa 0,0 l/m 0 min 0 min 0 W/m 3,2 km/h (1 Bft) 100,00 %
23.09.2018 00:52 10,8 C 9,4 C 10,0 C 95 % 1015,2 hPa 0,0 l/m 0 min 0 min 0 W/m 6,4 km/h (2 Bft) 100,00 %
23.09.2018 00:54 10,8 C 9,4 C 10,0 C 95 % 1015,3 hPa 0,0 l/m 0 min 0 min 0 W/m 3,2 km/h (1 Bft) 100,00 %
23.09.2018 00:56 10,8 C 9,4 C 9,4 C 95 % 1015,2 hPa 0,0 l/m 0 min 0 min 0 W/m 3,2 km/h (1 Bft) 100,00 %
23.09.2018 00:58 10,8 C 9,4 C 10,0 C 95 % 1015,2 hPa 0,0 l/m 0 min 0 min 0 W/m 3,2 km/h (1 Bft) 97,87 %
23.09.2018 01:00 10,8 C 9,4 C 10,0 C 95 % 1015,2 hPa 0,0 l/m 0 min 0 min 0 W/m 3,2 km/h (1 Bft) 100,00 %
23.09.2018 01:02 10,7 C 9,4 C 10,0 C 95 % 1015,2 hPa 0,0 l/m 0 min 0 min 0 W/m 3,2 km/h (1 Bft) 100,00 %
23.09.2018 01:04 10,7 C 9,4 C 10,0 C 96 % 1015,2 hPa 0,0 l/m 0 min 0 min 0 W/m 3,2 km/h (1 Bft) 100,00 %
23.09.2018 01:08 10,7 C 9,4 C 10,0 C 96 % 1015,1 hPa 0,0 l/m 0 min 0 min 0 W/m 6,4 km/h (2 Bft) 100,00 %
23.09.2018 01:10 10,7 C 9,4 C 10,0 C 96 % 1015,1 hPa 0,0 l/m 0 min 0 min 0 W/m 6,4 km/h (2 Bft) 97,87 %
23.09.2018 01:12 10,7 C 10,0 C 10,0 C 96 % 1015,1 hPa 0,0 l/m 0 min 0 min 0 W/m 3,2 km/h (1 Bft) 100,00 %
23.09.2018 01:14 10,7 C 10,0 C 10,0 C 96 % 1015,1 hPa 0,0 l/m 0 min 0 min 0 W/m 6,4 km/h (2 Bft) 97,87 %
23.09.2018 01:16 10,7 C 10,0 C 10,0 C 96 % 1014,9 hPa 0,0 l/m 0 min 0 min 0 W/m 3,2 km/h (1 Bft) 100,00 %
23.09.2018 01:18 10,7 C 10,0 C 10,0 C 96 % 1014,9 hPa 0,0 l/m 0 min 0 min 0 W/m 9,7 km/h (2 Bft) 100,00 %
23.09.2018 01:20 10,7 C 10,0 C 10,0 C 96 % 1014,9 hPa 0,0 l/m 0 min 0 min 0 W/m 6,4 km/h (2 Bft) 100,00 %
23.09.2018 01:22 10,7 C 10,0 C 10,0 C 96 % 1014,8 hPa 0,0 l/m 0 min 0 min 0 W/m 6,4 km/h (2 Bft) 97,87 %
23.09.2018 01:24 10,7 C 10,0 C 10,0 C 96 % 1014,8 hPa 0,0 l/m 0 min 0 min 0 W/m 6,4 km/h (2 Bft) 97,87 %
23.09.2018 01:26 10,7 C 10,0 C 10,0 C 96 % 1014,8 hPa 0,0 l/m 0 min 0 min 0 W/m 3,2 km/h (1 Bft) 97,83 %
23.09.2018 01:28 10,7 C 9,4 C 10,0 C 96 % 1014,8 hPa 0,0 l/m 0 min 0 min 0 W/m 6,4 km/h (2 Bft) 97,87 %
23.09.2018 01:30 10,7 C 9,4 C 10,0 C 96 % 1014,9 hPa 0,0 l/m 0 min 0 min 0 W/m 6,4 km/h (2 Bft) 95,74 %
23.09.2018 01:32 10,7 C 9,4 C 10,0 C 96 % 1014,9 hPa 0,0 l/m 0 min 0 min 0 W/m 3,2 km/h (1 Bft) 97,87 %
23.09.2018 01:34 10,7 C 9,4 C 10,0 C 96 % 1014,8 hPa 0,0 l/m 0 min 0 min 0 W/m 6,4 km/h (2 Bft) 89,36 %
23.09.2018 01:38 10,7 C 9,4 C 10,0 C 96 % 1014,8 hPa 0,0 l/m 0 min 0 min 0 W/m 3,2 km/h (1 Bft) 95,70 %
23.09.2018 01:40 10,7 C 10,0 C 10,0 C 96 % 1014,7 hPa 0,0 l/m 0 min 0 min 0 W/m 6,4 km/h (2 Bft) 95,74 %
23.09.2018 01:42 10,7 C 9,4 C 10,0 C 96 % 1014,7 hPa 0,0 l/m 0 min 0 min 0 W/m 6,4 km/h (2 Bft) 95,74 %
23.09.2018 01:44 10,7 C 9,4 C 10,0 C 96 % 1014,7 hPa 0,0 l/m 0 min 0 min 0 W/m 3,2 km/h (1 Bft) 97,87 %
23.09.2018 01:46 10,7 C 9,4 C 10,0 C 96 % 1014,6 hPa 0,0 l/m 0 min 0 min 0 W/m 6,4 km/h (2 Bft) 95,74 %
23.09.2018 01:48 10,7 C 9,4 C 10,0 C 96 % 1014,6 hPa 0,0 l/m 0 min 0 min 0 W/m 6,4 km/h (2 Bft) 95,74 %
23.09.2018 01:50 10,7 C 9,4 C 10,0 C 96 % 1014,6 hPa 0,0 l/m 0 min 0 min 0 W/m 9,7 km/h (2 Bft) 95,65 %
23.09.2018 01:52 10,6 C 9,4 C 10,0 C 96 % 1014,5 hPa 0,0 l/m 0 min 0 min 0 W/m 6,4 km/h (2 Bft) 96,30 %
23.09.2018 01:54 10,6 C 9,4 C 10,0 C 96 % 1014,5 hPa 0,0 l/m 0 min 0 min 0 W/m 6,4 km/h (2 Bft) 95,74 %
23.09.2018 01:56 10,6 C 9,4 C 10,0 C 96 % 1014,5 hPa 0,0 l/m 0 min 0 min 0 W/m 6,4 km/h (2 Bft) 95,65 %
23.09.2018 01:58 10,6 C 9,4 C 10,0 C 96 % 1014,4 hPa 0,0 l/m 0 min 2 min 0 W/m 6,4 km/h (2 Bft) 95,74 %
23.09.2018 02:00 10,6 C 9,4 C 10,0 C 96 % 1014,3 hPa 0,0 l/m 0 min 2 min 0 W/m 3,2 km/h (1 Bft) 95,74 %
23.09.2018 02:02 10,6 C 9,4 C 10,0 C 96 % 1014,3 hPa 0,0 l/m 0 min 2 min 0 W/m 6,4 km/h (2 Bft) 93,62 %
23.09.2018 02:04 10,6 C 9,4 C 10,0 C 96 % 1014,2 hPa 0,0 l/m 0 min 2 min 0 W/m 6,4 km/h (2 Bft) 95,74 %
23.09.2018 02:08 10,6 C 9,4 C 10,0 C 96 % 1014,1 hPa 0,0 l/m 0 min 4 min 0 W/m 12,9 km/h (3 Bft) 95,74 %
23.09.2018 02:10 10,6 C 9,4 C 10,0 C 96 % 1014,1 hPa 0,0 l/m 0 min 0 min 0 W/m 3,2 km/h (1 Bft) 95,74 %
23.09.2018 02:12 10,6 C 9,4 C 10,0 C 96 % 1014,1 hPa 0,0 l/m 0 min 0 min 0 W/m 9,7 km/h (2 Bft) 97,87 %
23.09.2018 02:14 10,6 C 9,4 C 10,0 C 96 % 1014,1 hPa 0,0 l/m 0 min 2 min 0 W/m 6,4 km/h (2 Bft) 93,62 %
23.09.2018 02:16 10,6 C 9,4 C 10,0 C 96 % 1014,0 hPa 0,0 l/m 0 min 0 min 0 W/m 9,7 km/h (2 Bft) 95,12 %
23.09.2018 02:18 10,6 C 9,4 C 10,0 C 96 % 1013,9 hPa 0,0 l/m 0 min 2 min 0 W/m 9,7 km/h (2 Bft) 93,62 %
23.09.2018 02:20 10,6 C 9,4 C 10,0 C 96 % 1013,8 hPa 0,0 l/m 0 min 2 min 0 W/m 6,4 km/h (2 Bft) 95,74 %
23.09.2018 02:22 10,6 C 9,4 C 10,0 C 96 % 1013,7 hPa 0,0 l/m 0 min 0 min 0 W/m 3,2 km/h (1 Bft) 94,34 %
23.09.2018 02:24 10,6 C 9,4 C 10,0 C 96 % 1013,7 hPa 0,0 l/m 0 min 2 min 0 W/m 0,0 km/h (0 Bft) 95,74 %
23.09.2018 02:26 10,6 C 9,4 C 10,0 C 96 % 1013,6 hPa 0,2 l/m 0 min 2 min 0 W/m 6,4 km/h (2 Bft) 97,87 %
23.09.2018 02:28 10,6 C 9,4 C 10,0 C 96 % 1013,5 hPa 0,0 l/m 0 min 2 min 0 W/m 9,7 km/h (2 Bft) 97,87 %
23.09.2018 02:30 10,6 C 9,4 C 10,0 C 96 % 1013,6 hPa 0,0 l/m 0 min 2 min 0 W/m 6,4 km/h (2 Bft) 100,00 %
23.09.2018 02:32 10,6 C 9,4 C 10,0 C 96 % 1013,5 hPa 0,0 l/m 0 min 0 min 0 W/m 6,4 km/h (2 Bft) 97,83 %
23.09.2018 02:34 10,6 C 9,4 C 10,0 C 96 % 1013,4 hPa 0,0 l/m 0 min 0 min 0 W/m 6,4 km/h (2 Bft) 100,00 %
23.09.2018 02:38 10,6 C 9,4 C 10,0 C 96 % 1013,3 hPa 0,0 l/m 0 min 0 min 0 W/m 22,5 km/h (4 Bft) 97,89 %
23.09.2018 02:40 10,6 C 9,4 C 10,0 C 96 % 1013,2 hPa 0,0 l/m 0 min 2 min 0 W/m 6,4 km/h (2 Bft) 100,00 %
23.09.2018 02:42 10,6 C 10,0 C 10,0 C 96 % 1013,1 hPa 0,0 l/m 0 min 2 min 0 W/m 3,2 km/h (1 Bft) 100,00 %
23.09.2018 02:44 10,6 C 10,0 C 10,0 C 96 % 1013,1 hPa 0,0 l/m 0 min 0 min 0 W/m 6,4 km/h (2 Bft) 100,00 %
23.09.2018 02:46 10,6 C 9,4 C 10,0 C 96 % 1013,1 hPa 0,0 l/m 0 min 2 min 0 W/m 6,4 km/h (2 Bft) 100,00 %
23.09.2018 02:48 10,6 C 10,0 C 10,0 C 96 % 1013,2 hPa 0,0 l/m 0 min 2 min 0 W/m 9,7 km/h (2 Bft) 95,74 %
23.09.2018 02:50 10,6 C 10,0 C 10,0 C 96 % 1013,2 hPa 0,0 l/m 0 min 2 min 0 W/m 6,4 km/h (2 Bft) 93,62 %
23.09.2018 02:52 10,6 C 10,0 C 10,0 C 96 % 1013,1 hPa 0,0 l/m 0 min 2 min 0 W/m 3,2 km/h (1 Bft) 97,92 %
23.09.2018 02:54 10,6 C 10,0 C 10,0 C 96 % 1013,2 hPa 0,0 l/m 0 min 2 min 0 W/m 6,4 km/h (2 Bft) 97,83 %
23.09.2018 02:56 10,6 C 10,0 C 10,0 C 96 % 1013,2 hPa 0,0 l/m 0 min 2 min 0 W/m 9,7 km/h (2 Bft) 97,87 %
23.09.2018 02:58 10,6 C 10,0 C 10,0 C 96 % 1013,1 hPa 0,0 l/m 0 min 2 min 0 W/m 6,4 km/h (2 Bft) 93,62 %
23.09.2018 03:00 10,6 C 10,0 C 10,0 C 96 % 1013,1 hPa 0,0 l/m 0 min 0 min 0 W/m 3,2 km/h (1 Bft) 97,87 %
23.09.2018 03:02 10,6 C 10,0 C 10,0 C 96 % 1013,1 hPa 0,0 l/m 0 min 0 min 0 W/m 9,7 km/h (2 Bft) 97,87 %
23.09.2018 03:04 10,6 C 10,0 C 10,0 C 96 % 1013,1 hPa 0,0 l/m 0 min 0 min 0 W/m 6,4 km/h (2 Bft) 97,87 %
23.09.2018 03:08 10,6 C 10,0 C 10,0 C 96 % 1013,0 hPa 0,0 l/m 0 min 0 min 0 W/m 9,7 km/h (2 Bft) 96,39 %
23.09.2018 03:10 10,7 C 10,0 C 10,0 C 96 % 1013,0 hPa 0,0 l/m 0 min 2 min 0 W/m 6,4 km/h (2 Bft) 97,83 %
23.09.2018 03:12 10,7 C 10,0 C 10,0 C 96 % 1012,9 hPa 0,0 l/m 0 min 2 min 0 W/m 6,4 km/h (2 Bft) 97,87 %
23.09.2018 03:14 10,7 C 10,0 C 10,0 C 97 % 1012,9 hPa 0,0 l/m 0 min 2 min 0 W/m 6,4 km/h (2 Bft) 97,87 %
23.09.2018 03:16 10,7 C 10,0 C 10,0 C 97 % 1012,8 hPa 0,0 l/m 0 min 2 min 0 W/m 9,7 km/h (2 Bft) 97,87 %
23.09.2018 03:18 10,7 C 10,0 C 10,0 C 97 % 1012,8 hPa 0,0 l/m 0 min 2 min 0 W/m 6,4 km/h (2 Bft) 95,74 %
23.09.2018 03:20 10,7 C 10,0 C 10,0 C 97 % 1012,8 hPa 0,2 l/m 0 min 2 min 0 W/m 12,9 km/h (3 Bft) 98,28 %
23.09.2018 03:22 10,7 C 10,0 C 10,6 C 97 % 1012,8 hPa 0,0 l/m 0 min 2 min 0 W/m 12,9 km/h (3 Bft) 97,87 %
23.09.2018 03:24 10,7 C 10,0 C 10,6 C 97 % 1012,8 hPa 0,0 l/m 0 min 2 min 0 W/m 12,9 km/h (3 Bft) 97,14 %
23.09.2018 03:26 10,7 C 10,0 C 10,6 C 97 % 1012,8 hPa 0,0 l/m 0 min 2 min 0 W/m 9,7 km/h (2 Bft) 97,87 %
23.09.2018 03:28 10,7 C 10,0 C 10,6 C 97 % 1012,9 hPa 0,0 l/m 0 min 2 min 0 W/m 9,7 km/h (2 Bft) 97,87 %
23.09.2018 03:30 10,7 C 10,0 C 10,0 C 97 % 1012,9 hPa 0,0 l/m 0 min 2 min 0 W/m 3,2 km/h (1 Bft) 97,87 %
23.09.2018 03:32 10,7 C 10,0 C 10,0 C 97 % 1012,8 hPa 0,0 l/m 0 min 2 min 0 W/m 9,7 km/h (2 Bft) 97,83 %
23.09.2018 03:34 10,7 C 10,0 C 10,0 C 97 % 1012,8 hPa 0,0 l/m 0 min 2 min 0 W/m 6,4 km/h (2 Bft) 100,00 %
23.09.2018 03:38 10,7 C 10,0 C 10,6 C 97 % 1012,7 hPa 0,0 l/m 0 min 0 min 0 W/m 9,7 km/h (2 Bft) 98,95 %
23.09.2018 03:40 10,7 C 10,0 C 10,6 C 97 % 1012,6 hPa 0,0 l/m 0 min 2 min 0 W/m 9,7 km/h (2 Bft) 100,00 %
23.09.2018 03:42 10,7 C 10,0 C 10,0 C 97 % 1012,5 hPa 0,0 l/m 0 min 0 min 0 W/m 6,4 km/h (2 Bft) 100,00 %
23.09.2018 03:44 10,7 C 10,0 C 10,0 C 97 % 1012,6 hPa 0,0 l/m 0 min 2 min 0 W/m 9,7 km/h (2 Bft) 100,00 %
23.09.2018 03:46 10,8 C 10,0 C 10,0 C 97 % 1012,5 hPa 0,0 l/m 0 min 0 min 0 W/m 3,2 km/h (1 Bft) 97,87 %
23.09.2018 03:48 10,8 C 10,0 C 10,0 C 97 % 1012,4 hPa 0,0 l/m 0 min 0 min 0 W/m 6,4 km/h (2 Bft) 97,87 %
23.09.2018 03:50 10,8 C 10,0 C 10,6 C 97 % 1012,4 hPa 0,0 l/m 0 min 2 min 0 W/m 9,7 km/h (2 Bft) 100,00 %
23.09.2018 03:52 10,8 C 10,0 C 10,6 C 97 % 1012,4 hPa 0,0 l/m 0 min 0 min 0 W/m 6,4 km/h (2 Bft) 97,14 %
23.09.2018 03:54 10,8 C 10,0 C 10,6 C 97 % 1012,4 hPa 0,0 l/m 0 min 2 min 0 W/m 0,0 km/h (0 Bft) 100,00 %
23.09.2018 03:56 10,8 C 10,0 C 10,6 C 97 % 1012,3 hPa 0,0 l/m 0 min 2 min 0 W/m 6,4 km/h (2 Bft) 100,00 %
23.09.2018 03:58 10,8 C 10,0 C 10,6 C 97 % 1012,4 hPa 0,0 l/m 0 min 2 min 0 W/m 6,4 km/h (2 Bft) 100,00 %
23.09.2018 04:00 10,8 C 10,0 C 10,6 C 97 % 1012,2 hPa 0,0 l/m 0 min 2 min 0 W/m 9,7 km/h (2 Bft) 100,00 %
23.09.2018 04:02 10,8 C 10,0 C 10,6 C 97 % 1012,2 hPa 0,0 l/m 0 min 2 min 0 W/m 0,0 km/h (0 Bft) 100,00 %
23.09.2018 04:04 10,8 C 10,0 C 10,6 C 97 % 1012,2 hPa 0,0 l/m 0 min 2 min 0 W/m 6,4 km/h (2 Bft) 97,87 %
23.09.2018 04:08 10,8 C 10,0 C 10,0 C 97 % 1012,1 hPa 0,0 l/m 0 min 0 min 0 W/m 6,4 km/h (2 Bft) 97,87 %
23.09.2018 04:10 10,8 C 10,0 C 10,6 C 97 % 1012,0 hPa 0,2 l/m 0 min 0 min 0 W/m 3,2 km/h (1 Bft) 97,87 %
23.09.2018 04:12 10,8 C 10,0 C 10,6 C 97 % 1011,9 hPa 0,0 l/m 0 min 0 min 0 W/m 0,0 km/h (0 Bft) 97,87 %
23.09.2018 04:14 10,8 C 10,0 C 10,6 C 97 % 1011,8 hPa 0,0 l/m 0 min 0 min 0 W/m 0,0 km/h (0 Bft) 100,00 %
23.09.2018 04:16 10,9 C 10,0 C 10,0 C 97 % 1011,8 hPa 0,0 l/m 0 min 0 min 0 W/m 9,7 km/h (2 Bft) 100,00 %
23.09.2018 04:18 10,9 C 10,0 C 10,6 C 97 % 1011,8 hPa 0,0 l/m 0 min 0 min 0 W/m 3,2 km/h (1 Bft) 97,83 %
23.09.2018 04:20 10,9 C 10,0 C 10,6 C 97 % 1011,8 hPa 0,0 l/m 0 min 0 min 0 W/m 9,7 km/h (2 Bft) 97,87 %
23.09.2018 04:22 10,9 C 10,0 C 10,6 C 97 % 1012,0 hPa 0,0 l/m 0 min 0 min 0 W/m 6,4 km/h (2 Bft) 95,74 %
23.09.2018 04:24 10,9 C 10,0 C 10,6 C 97 % 1012,0 hPa 0,0 l/m 0 min 0 min 0 W/m 3,2 km/h (1 Bft) 97,87 %
23.09.2018 04:26 10,9 C 10,0 C 10,6 C 97 % 1012,0 hPa 0,0 l/m 0 min 2 min 0 W/m 6,4 km/h (2 Bft) 97,87 %
23.09.2018 04:28 10,9 C 10,0 C 10,6 C 97 % 1012,0 hPa 0,0 l/m 0 min 2 min 0 W/m 6,4 km/h (2 Bft) 97,87 %
23.09.2018 04:30 10,9 C 10,0 C 10,6 C 97 % 1011,9 hPa 0,0 l/m 0 min 2 min 0 W/m 6,4 km/h (2 Bft) 95,74 %
23.09.2018 04:32 10,9 C 10,0 C 10,6 C 97 % 1011,9 hPa 0,0 l/m 0 min 2 min 0 W/m 9,7 km/h (2 Bft) 95,65 %
23.09.2018 04:34 10,9 C 10,0 C 10,6 C 97 % 1011,9 hPa 0,0 l/m 0 min 2 min 0 W/m 9,7 km/h (2 Bft) 95,74 %
23.09.2018 04:38 10,9 C 10,0 C 10,6 C 97 % 1011,8 hPa 0,2 l/m 0 min 4 min 0 W/m 6,4 km/h (2 Bft) 97,89 %
23.09.2018 04:40 10,9 C 10,0 C 10,6 C 97 % 1011,7 hPa 0,0 l/m 0 min 2 min 0 W/m 3,2 km/h (1 Bft) 97,87 %
23.09.2018 04:42 11,0 C 10,0 C 10,6 C 97 % 1011,8 hPa 0,0 l/m 0 min 2 min 0 W/m 3,2 km/h (1 Bft) 95,65 %
23.09.2018 04:44 11,0 C 10,0 C 10,6 C 97 % 1011,6 hPa 0,0 l/m 0 min 2 min 0 W/m 6,4 km/h (2 Bft) 97,87 %
23.09.2018 04:46 11,0 C 10,0 C 10,6 C 97 % 1011,5 hPa 0,0 l/m 0 min 2 min 0 W/m 9,7 km/h (2 Bft) 97,87 %
23.09.2018 04:48 11,0 C 10,0 C 10,6 C 97 % 1011,4 hPa 0,0 l/m 0 min 2 min 0 W/m 9,7 km/h (2 Bft) 97,87 %
23.09.2018 04:50 11,0 C 10,0 C 10,6 C 97 % 1011,4 hPa 0,0 l/m 0 min 2 min 0 W/m 12,9 km/h (3 Bft) 97,87 %
23.09.2018 04:52 11,0 C 10,0 C 10,6 C 97 % 1011,4 hPa 0,0 l/m 0 min 2 min 0 W/m 3,2 km/h (1 Bft) 93,62 %
23.09.2018 04:54 11,0 C 10,6 C 10,6 C 97 % 1011,4 hPa 0,0 l/m 0 min 2 min 0 W/m 3,2 km/h (1 Bft) 97,83 %
23.09.2018 04:56 11,0 C 10,6 C 10,6 C 97 % 1011,3 hPa 0,0 l/m 0 min 2 min 0 W/m 6,4 km/h (2 Bft) 97,87 %
23.09.2018 04:58 11,0 C 10,6 C 10,6 C 97 % 1011,2 hPa 0,2 l/m 0 min 2 min 0 W/m 6,4 km/h (2 Bft) 97,87 %
23.09.2018 05:00 11,0 C 10,0 C 10,6 C 97 % 1011,3 hPa 0,0 l/m 0 min 2 min 0 W/m 6,4 km/h (2 Bft) 95,74 %
23.09.2018 05:02 11,0 C 10,0 C 10,6 C 97 % 1011,3 hPa 0,0 l/m 0 min 2 min 0 W/m 3,2 km/h (1 Bft) 97,87 %
23.09.2018 05:04 11,0 C 10,6 C 10,6 C 97 % 1011,2 hPa 0,0 l/m 0 min 2 min 0 W/m 3,2 km/h (1 Bft) 97,83 %
23.09.2018 05:08 11,1 C 10,6 C 10,6 C 97 % 1011,1 hPa 0,0 l/m 0 min 4 min 0 W/m 0,0 km/h (0 Bft) 95,79 %
23.09.2018 05:10 11,1 C 10,6 C 10,6 C 97 % 1011,1 hPa 0,0 l/m 0 min 2 min 0 W/m 3,2 km/h (1 Bft) 97,87 %
23.09.2018 05:12 11,1 C 10,6 C 10,6 C 97 % 1011,1 hPa 0,0 l/m 0 min 2 min 0 W/m 0,0 km/h (0 Bft) 97,87 %
23.09.2018 05:14 11,1 C 10,6 C 10,6 C 97 % 1011,2 hPa 0,0 l/m 0 min 2 min 0 W/m 0,0 km/h (0 Bft) 97,87 %
23.09.2018 05:16 11,1 C 10,6 C 10,6 C 97 % 1011,2 hPa 0,0 l/m 0 min 2 min 0 W/m 0,0 km/h (0 Bft) 97,83 %
23.09.2018 05:18 11,1 C 10,6 C 10,6 C 97 % 1011,2 hPa 0,0 l/m 0 min 2 min 0 W/m 9,7 km/h (2 Bft) 97,87 %
23.09.2018 05:20 11,1 C 10,6 C 10,6 C 97 % 1011,2 hPa 0,0 l/m 0 min 0 min 0 W/m 9,7 km/h (2 Bft) 97,87 %
23.09.2018 05:22 11,1 C 10,6 C 10,6 C 97 % 1011,2 hPa 0,0 l/m 0 min 0 min 0 W/m 9,7 km/h (2 Bft) 97,87 %
23.09.2018 05:24 11,1 C 10,6 C 10,6 C 97 % 1011,2 hPa 0,2 l/m 0 min 0 min 0 W/m 3,2 km/h (1 Bft) 97,87 %
23.09.2018 05:26 11,1 C 10,6 C 10,6 C 97 % 1011,1 hPa 0,0 l/m 0 min 0 min 0 W/m 3,2 km/h (1 Bft) 97,87 %
23.09.2018 05:28 11,1 C 10,6 C 10,6 C 97 % 1011,0 hPa 0,0 l/m 0 min 2 min 0 W/m 6,4 km/h (2 Bft) 97,83 %
23.09.2018 05:30 11,1 C 10,6 C 10,6 C 97 % 1010,9 hPa 0,0 l/m 0 min 2 min 0 W/m 3,2 km/h (1 Bft) 97,87 %
23.09.2018 05:32 11,1 C 10,6 C 10,6 C 97 % 1010,9 hPa 0,0 l/m 0 min 2 min 0 W/m 3,2 km/h (1 Bft) 95,74 %
23.09.2018 05:34 11,1 C 10,6 C 10,6 C 97 % 1010,9 hPa 0,0 l/m 0 min 2 min 0 W/m 6,4 km/h (2 Bft) 95,74 %
23.09.2018 05:36 11,1 C 10,6 C 10,6 C 97 % 1010,9 hPa 0,0 l/m 0 min 2 min 0 W/m 6,4 km/h (2 Bft) 93,62 %
23.09.2018 05:38 11,1 C 10,6 C 10,6 C 97 % 1010,9 hPa 0,0 l/m 0 min 2 min 0 W/m 3,2 km/h (1 Bft) 95,74 %
23.09.2018 05:40 11,1 C 10,6 C 10,6 C 97 % 1010,9 hPa 0,0 l/m 0 min 0 min 0 W/m 3,2 km/h (1 Bft) 95,65 %
23.09.2018 05:42 11,2 C 10,6 C 10,6 C 97 % 1010,9 hPa 0,0 l/m 0 min 0 min 0 W/m 9,7 km/h (2 Bft) 95,74 %
23.09.2018 05:44 11,1 C 10,6 C 10,6 C 97 % 1010,7 hPa 0,0 l/m 0 min 0 min 0 W/m 9,7 km/h (2 Bft) 95,74 %
23.09.2018 05:46 11,1 C 10,6 C 10,6 C 98 % 1010,7 hPa 0,0 l/m 0 min 0 min 0 W/m 3,2 km/h (1 Bft) 93,62 %
23.09.2018 05:48 11,2 C 10,6 C 10,6 C 98 % 1010,6 hPa 0,0 l/m 0 min 0 min 0 W/m 3,2 km/h (1 Bft) 93,62 %
23.09.2018 05:50 11,1 C 10,6 C 10,6 C 98 % 1010,6 hPa 0,0 l/m 0 min 2 min 0 W/m 0,0 km/h (0 Bft) 93,62 %
23.09.2018 05:52 11,1 C 10,6 C 10,6 C 98 % 1010,6 hPa 0,0 l/m 0 min 2 min 0 W/m 0,0 km/h (0 Bft) 93,48 %
23.09.2018 05:54 11,1 C 10,6 C 10,6 C 98 % 1010,6 hPa 0,0 l/m 0 min 2 min 0 W/m 0,0 km/h (0 Bft) 93,62 %
23.09.2018 05:56 11,2 C 10,6 C 10,6 C 98 % 1010,5 hPa 0,2 l/m 0 min 2 min 0 W/m 0,0 km/h (0 Bft) 95,74 %
23.09.2018 05:58 11,1 C 10,6 C 10,6 C 98 % 1010,5 hPa 0,0 l/m 0 min 2 min 0 W/m 0,0 km/h (0 Bft) 95,74 %
23.09.2018 06:00 11,1 C 10,6 C 10,6 C 98 % 1010,4 hPa 0,0 l/m 0 min 2 min 0 W/m 0,0 km/h (0 Bft) 95,74 %
23.09.2018 06:02 11,1 C 10,6 C 10,6 C 98 % 1010,3 hPa 0,0 l/m 0 min 2 min 0 W/m 6,4 km/h (2 Bft) 93,62 %
23.09.2018 06:04 11,1 C 10,6 C 10,6 C 98 % 1010,4 hPa 0,0 l/m 0 min 2 min 0 W/m 6,4 km/h (2 Bft) 95,65 %
23.09.2018 06:08 11,1 C 10,6 C 10,6 C 98 % 1010,1 hPa 0,0 l/m 0 min 4 min 0 W/m 6,4 km/h (2 Bft) 95,74 %
23.09.2018 06:10 11,1 C 10,6 C 10,6 C 98 % 1010,0 hPa 0,0 l/m 0 min 2 min 0 W/m 6,4 km/h (2 Bft) 95,74 %
23.09.2018 06:12 11,1 C 10,6 C 10,6 C 98 % 1010,0 hPa 0,0 l/m 0 min 2 min 0 W/m 9,7 km/h (2 Bft) 95,74 %
23.09.2018 06:14 11,1 C 10,6 C 10,6 C 98 % 1010,0 hPa 0,0 l/m 0 min 0 min 0 W/m 3,2 km/h (1 Bft) 97,83 %
23.09.2018 06:16 11,1 C 10,6 C 10,6 C 98 % 1009,9 hPa 0,0 l/m 0 min 0 min 0 W/m 3,2 km/h (1 Bft) 97,87 %
23.09.2018 06:18 11,1 C 10,6 C 10,6 C 98 % 1009,9 hPa 0,0 l/m 0 min 0 min 0 W/m 9,7 km/h (2 Bft) 100,00 %
23.09.2018 06:20 11,1 C 10,6 C 10,6 C 98 % 1009,9 hPa 0,0 l/m 0 min 0 min 0 W/m 0,0 km/h (0 Bft) 97,87 %
23.09.2018 06:22 11,1 C 10,6 C 10,6 C 98 % 1009,9 hPa 0,0 l/m 0 min 0 min 0 W/m 6,4 km/h (2 Bft) 97,87 %
23.09.2018 06:24 11,1 C 10,6 C 10,6 C 98 % 1009,9 hPa 0,0 l/m 0 min 0 min 0 W/m 3,2 km/h (1 Bft) 100,00 %
23.09.2018 06:26 11,1 C 10,6 C 10,6 C 98 % 1009,9 hPa 0,0 l/m 0 min 0 min 0 W/m 3,2 km/h (1 Bft) 100,00 %
23.09.2018 06:28 11,1 C 10,6 C 10,6 C 98 % 1009,7 hPa 0,0 l/m 0 min 0 min 0 W/m 12,9 km/h (3 Bft) 95,74 %
23.09.2018 06:30 11,1 C 10,6 C 10,6 C 98 % 1009,8 hPa 0,0 l/m 0 min 0 min 0 W/m 0,0 km/h (0 Bft) 100,00 %
23.09.2018 06:32 11,1 C 10,6 C 10,6 C 98 % 1009,7 hPa 0,0 l/m 0 min 0 min 0 W/m 0,0 km/h (0 Bft) 100,00 %
23.09.2018 06:34 11,1 C 10,6 C 10,6 C 98 % 1009,6 hPa 0,0 l/m 0 min 0 min 0 W/m 0,0 km/h (0 Bft) 100,00 %
23.09.2018 06:38 11,1 C 10,6 C 10,6 C 98 % 1009,7 hPa 0,0 l/m 0 min 0 min 0 W/m 0,0 km/h (0 Bft) 98,92 %
23.09.2018 06:40 11,1 C 10,6 C 10,6 C 98 % 1009,7 hPa 0,0 l/m 0 min 0 min 0 W/m 0,0 km/h (0 Bft) 100,00 %
23.09.2018 06:42 11,1 C 10,6 C 10,6 C 98 % 1009,7 hPa 0,0 l/m 0 min 0 min 0 W/m 3,2 km/h (1 Bft) 97,87 %
23.09.2018 06:44 11,1 C 10,6 C 10,6 C 98 % 1009,9 hPa 0,0 l/m 0 min 0 min 0 W/m 3,2 km/h (1 Bft) 97,87 %
23.09.2018 06:46 11,1 C 10,6 C 10,6 C 98 % 1009,9 hPa 0,0 l/m 0 min 0 min 0 W/m 3,2 km/h (1 Bft) 97,62 %
23.09.2018 06:48 11,1 C 10,6 C 10,6 C 98 % 1010,0 hPa 0,0 l/m 0 min 0 min 0 W/m 3,2 km/h (1 Bft) 100,00 %
23.09.2018 06:50 11,1 C 10,6 C 10,6 C 98 % 1010,0 hPa 0,0 l/m 0 min 0 min 0 W/m 0,0 km/h (0 Bft) 100,00 %
23.09.2018 06:52 11,1 C 10,6 C 10,6 C 98 % 1010,0 hPa 0,0 l/m 0 min 0 min 0 W/m 0,0 km/h (0 Bft) 97,87 %
23.09.2018 06:54 11,1 C 10,6 C 10,6 C 98 % 1010,1 hPa 0,0 l/m 0 min 0 min 0 W/m 0,0 km/h (0 Bft) 97,83 %
23.09.2018 06:56 11,1 C 10,6 C 10,6 C 98 % 1010,1 hPa 0,0 l/m 0 min 0 min 0 W/m 3,2 km/h (1 Bft) 97,87 %
23.09.2018 06:58 11,1 C 10,6 C 10,6 C 98 % 1010,1 hPa 0,0 l/m 0 min 2 min 0 W/m 0,0 km/h (0 Bft) 97,87 %
23.09.2018 07:00 11,1 C 10,6 C 10,6 C 98 % 1010,0 hPa 0,0 l/m 0 min 2 min 0 W/m 0,0 km/h (0 Bft) 100,00 %
23.09.2018 07:02 11,1 C 10,6 C 10,6 C 98 % 1010,0 hPa 0,0 l/m 0 min 2 min 0 W/m 0,0 km/h (0 Bft) 100,00 %
23.09.2018 07:04 11,1 C 10,6 C 10,6 C 98 % 1010,0 hPa 0,0 l/m 0 min 2 min 0 W/m 3,2 km/h (1 Bft) 100,00 %
23.09.2018 07:08 11,1 C 10,6 C 10,6 C 98 % 1009,8 hPa 0,0 l/m 0 min 4 min 0 W/m 3,2 km/h (1 Bft) 97,85 %
23.09.2018 07:10 11,1 C 10,6 C 10,6 C 98 % 1009,8 hPa 0,0 l/m 0 min 2 min 0 W/m 0,0 km/h (0 Bft) 100,00 %
23.09.2018 07:12 11,1 C 10,6 C 10,6 C 98 % 1009,8 hPa 0,0 l/m 0 min 2 min 0 W/m 3,2 km/h (1 Bft) 97,87 %
23.09.2018 07:14 11,1 C 10,6 C 10,6 C 98 % 1009,7 hPa 0,2 l/m 0 min 2 min 0 W/m 0,0 km/h (0 Bft) 97,87 %
23.09.2018 07:16 11,1 C 10,6 C 10,6 C 98 % 1009,7 hPa 0,0 l/m 0 min 2 min 0 W/m 0,0 km/h (0 Bft) 97,87 %
23.09.2018 07:18 11,1 C 10,6 C 10,6 C 98 % 1009,7 hPa 0,0 l/m 0 min 2 min 0 W/m 0,0 km/h (0 Bft) 97,83 %
23.09.2018 07:20 11,1 C 10,6 C 10,6 C 98 % 1009,7 hPa 0,0 l/m 0 min 2 min 0 W/m 3,2 km/h (1 Bft) 97,87 %
23.09.2018 07:22 11,1 C 10,6 C 10,6 C 98 % 1009,7 hPa 0,0 l/m 0 min 2 min 0 W/m 0,0 km/h (0 Bft) 97,87 %
23.09.2018 07:24 11,1 C 10,6 C 10,6 C 98 % 1009,7 hPa 0,0 l/m 0 min 2 min 0 W/m 0,0 km/h (0 Bft) 97,87 %
23.09.2018 07:26 11,1 C 10,6 C 10,6 C 98 % 1009,7 hPa 0,0 l/m 0 min 2 min 0 W/m 0,0 km/h (0 Bft) 97,87 %
23.09.2018 07:28 11,1 C 10,6 C 10,6 C 98 % 1009,7 hPa 0,0 l/m 0 min 2 min 0 W/m 0,0 km/h (0 Bft) 97,87 %
23.09.2018 07:30 11,1 C 10,6 C 10,6 C 98 % 1009,7 hPa 0,2 l/m 0 min 2 min 5 W/m 0,0 km/h (0 Bft) 95,65 %
23.09.2018 07:32 11,2 C 10,6 C 10,6 C 98 % 1009,5 hPa 0,0 l/m 0 min 0 min 6 W/m 0,0 km/h (0 Bft) 95,92 %
23.09.2018 07:34 11,2 C 10,6 C 10,6 C 98 % 1009,5 hPa 0,0 l/m 0 min 0 min 8 W/m 3,2 km/h (1 Bft) 95,74 %
23.09.2018 07:38 11,2 C 10,6 C 10,6 C 98 % 1009,4 hPa 0,0 l/m 0 min 0 min 7 W/m 3,2 km/h (1 Bft) 95,74 %
23.09.2018 07:40 11,2 C 10,6 C 10,6 C 98 % 1009,3 hPa 0,0 l/m 0 min 0 min 7 W/m 0,0 km/h (0 Bft) 97,83 %
23.09.2018 07:42 11,1 C 10,6 C 10,6 C 98 % 1009,4 hPa 0,0 l/m 0 min 0 min 7 W/m 0,0 km/h (0 Bft) 97,87 %
23.09.2018 07:44 11,2 C 10,6 C 10,6 C 98 % 1009,4 hPa 0,0 l/m 0 min 0 min 5 W/m 3,2 km/h (1 Bft) 97,87 %
23.09.2018 07:46 11,2 C 10,6 C 10,6 C 98 % 1009,4 hPa 0,0 l/m 0 min 0 min 5 W/m 0,0 km/h (0 Bft) 95,74 %
23.09.2018 07:48 11,2 C 10,6 C 10,6 C 98 % 1009,5 hPa 0,0 l/m 0 min 0 min 5 W/m 0,0 km/h (0 Bft) 93,62 %
23.09.2018 07:50 11,2 C 10,6 C 10,6 C 98 % 1009,5 hPa 0,0 l/m 0 min 0 min 5 W/m 0,0 km/h (0 Bft) 97,87 %
23.09.2018 07:52 11,2 C 10,6 C 10,6 C 98 % 1009,5 hPa 0,0 l/m 0 min 0 min 7 W/m 0,0 km/h (0 Bft) 97,83 %
23.09.2018 07:54 11,2 C 10,6 C 10,6 C 98 % 1009,4 hPa 0,0 l/m 0 min 0 min 7 W/m 0,0 km/h (0 Bft) 97,87 %
23.09.2018 07:56 11,2 C 10,6 C 10,6 C 98 % 1009,5 hPa 0,0 l/m 0 min 0 min 7 W/m 0,0 km/h (0 Bft) 97,87 %
23.09.2018 07:58 11,2 C 10,6 C 10,6 C 98 % 1009,5 hPa 0,0 l/m 0 min 0 min 7 W/m 0,0 km/h (0 Bft) 97,87 %
23.09.2018 08:00 11,2 C 10,6 C 10,6 C 98 % 1009,5 hPa 0,0 l/m 0 min 0 min 7 W/m 0,0 km/h (0 Bft) 100,00 %
23.09.2018 08:02 11,2 C 10,6 C 10,6 C 98 % 1009,5 hPa 0,0 l/m 0 min 0 min 7 W/m 0,0 km/h (0 Bft) 97,87 %
23.09.2018 08:04 11,2 C 10,6 C 10,6 C 98 % 1009,6 hPa 0,0 l/m 0 min 0 min 7 W/m 0,0 km/h (0 Bft) 97,83 %
23.09.2018 08:08 11,2 C 10,6 C 10,6 C 98 % 1009,5 hPa 0,0 l/m 0 min 0 min 8 W/m 0,0 km/h (0 Bft) 100,00 %
23.09.2018 08:10 11,2 C 10,6 C 10,6 C 98 % 1009,4 hPa 0,0 l/m 0 min 0 min 11 W/m 0,0 km/h (0 Bft) 100,00 %
23.09.2018 08:12 11,2 C 10,6 C 10,6 C 98 % 1009,4 hPa 0,0 l/m 0 min 0 min 11 W/m 0,0 km/h (0 Bft) 100,00 %
23.09.2018 08:14 11,2 C 10,6 C 10,6 C 98 % 1009,4 hPa 0,0 l/m 0 min 0 min 10 W/m 0,0 km/h (0 Bft) 97,87 %
23.09.2018 08:16 11,2 C 10,6 C 10,6 C 98 % 1009,4 hPa 0,0 l/m 0 min 0 min 9 W/m 0,0 km/h (0 Bft) 97,83 %
23.09.2018 08:18 11,2 C 10,6 C 10,6 C 98 % 1009,4 hPa 0,0 l/m 0 min 0 min 10 W/m 0,0 km/h (0 Bft) 97,87 %
23.09.2018 08:20 11,2 C 10,6 C 10,6 C 98 % 1009,3 hPa 0,0 l/m 0 min 0 min 12 W/m 0,0 km/h (0 Bft) 95,74 %
23.09.2018 08:22 11,2 C 10,6 C 10,6 C 98 % 1009,3 hPa 0,0 l/m 0 min 0 min 14 W/m 0,0 km/h (0 Bft) 97,87 %
23.09.2018 08:24 11,2 C 10,6 C 10,6 C 98 % 1009,3 hPa 0,0 l/m 0 min 0 min 14 W/m 3,2 km/h (1 Bft) 97,87 %
23.09.2018 08:26 11,2 C 10,6 C 10,6 C 98 % 1009,2 hPa 0,0 l/m 0 min 0 min 14 W/m 3,2 km/h (1 Bft) 97,87 %
23.09.2018 08:28 11,2 C 10,6 C 10,6 C 98 % 1009,3 hPa 0,0 l/m 0 min 0 min 16 W/m 0,0 km/h (0 Bft) 97,83 %
23.09.2018 08:30 11,2 C 10,6 C 10,6 C 98 % 1009,3 hPa 0,0 l/m 0 min 0 min 17 W/m 0,0 km/h (0 Bft) 95,74 %
23.09.2018 08:32 11,2 C 10,6 C 10,6 C 98 % 1009,2 hPa 0,0 l/m 0 min 0 min 18 W/m 3,2 km/h (1 Bft) 97,87 %
23.09.2018 08:34 11,2 C 10,6 C 10,6 C 98 % 1009,2 hPa 0,0 l/m 0 min 0 min 16 W/m 3,2 km/h (1 Bft) 97,87 %
23.09.2018 08:38 11,2 C 10,6 C 10,6 C 98 % 1009,2 hPa 0,0 l/m 0 min 0 min 16 W/m 3,2 km/h (1 Bft) 97,85 %
23.09.2018 08:40 11,2 C 10,6 C 10,6 C 98 % 1009,1 hPa 0,0 l/m 0 min 0 min 16 W/m 0,0 km/h (0 Bft) 97,87 %
23.09.2018 08:42 11,2 C 10,6 C 10,6 C 98 % 1009,1 hPa 0,0 l/m 0 min 0 min 18 W/m 0,0 km/h (0 Bft) 97,87 %
23.09.2018 08:44 11,2 C 10,6 C 10,6 C 98 % 1009,1 hPa 0,0 l/m 0 min 0 min 19 W/m 0,0 km/h (0 Bft) 95,74 %
23.09.2018 08:46 11,3 C 10,6 C 10,6 C 98 % 1009,1 hPa 0,0 l/m 0 min 0 min 23 W/m 0,0 km/h (0 Bft) 91,67 %
23.09.2018 08:48 11,3 C 10,6 C 10,6 C 98 % 1009,1 hPa 0,0 l/m 0 min 0 min 25 W/m 0,0 km/h (0 Bft) 93,62 %
23.09.2018 08:50 11,3 C 10,6 C 10,6 C 98 % 1009,0 hPa 0,0 l/m 0 min 0 min 30 W/m 0,0 km/h (0 Bft) 95,65 %
23.09.2018 08:52 11,3 C 10,6 C 10,6 C 98 % 1009,0 hPa 0,0 l/m 0 min 0 min 35 W/m 0,0 km/h (0 Bft) 93,62 %
23.09.2018 08:54 11,3 C 10,6 C 10,6 C 98 % 1009,0 hPa 0,0 l/m 0 min 0 min 38 W/m 0,0 km/h (0 Bft) 95,74 %
23.09.2018 08:56 11,3 C 10,6 C 10,6 C 98 % 1009,0 hPa 0,0 l/m 0 min 0 min 41 W/m 3,2 km/h (1 Bft) 95,74 %
23.09.2018 08:58 11,3 C 10,6 C 10,6 C 98 % 1009,0 hPa 0,0 l/m 0 min 0 min 42 W/m 3,2 km/h (1 Bft) 95,74 %
23.09.2018 09:00 11,3 C 10,6 C 10,6 C 98 % 1009,0 hPa 0,0 l/m 0 min 0 min 44 W/m 3,2 km/h (1 Bft) 95,74 %
23.09.2018 09:02 11,3 C 11,1 C 10,6 C 98 % 1009,0 hPa 0,0 l/m 0 min 0 min 46 W/m 3,2 km/h (1 Bft) 93,48 %
23.09.2018 09:04 11,3 C 10,6 C 10,6 C 98 % 1009,0 hPa 0,0 l/m 0 min 0 min 44 W/m 3,2 km/h (1 Bft) 97,87 %
23.09.2018 09:08 11,3 C 11,1 C 10,6 C 98 % 1009,1 hPa 0,0 l/m 0 min 0 min 42 W/m 3,2 km/h (1 Bft) 95,74 %
23.09.2018 09:10 11,4 C 11,1 C 10,6 C 98 % 1009,1 hPa 0,0 l/m 0 min 0 min 40 W/m 3,2 km/h (1 Bft) 95,74 %
23.09.2018 09:12 11,4 C 11,1 C 10,6 C 98 % 1009,1 hPa 0,0 l/m 0 min 0 min 44 W/m 0,0 km/h (0 Bft) 97,87 %
23.09.2018 09:14 11,4 C 11,1 C 10,6 C 98 % 1009,0 hPa 0,0 l/m 0 min 0 min 47 W/m 3,2 km/h (1 Bft) 97,83 %
23.09.2018 09:16 11,4 C 10,6 C 10,6 C 98 % 1009,0 hPa 0,0 l/m 0 min 0 min 53 W/m 9,7 km/h (2 Bft) 97,87 %
23.09.2018 09:18 11,4 C 11,1 C 10,6 C 98 % 1009,1 hPa 0,0 l/m 0 min 0 min 62 W/m 6,4 km/h (2 Bft) 97,87 %
23.09.2018 09:20 11,4 C 11,1 C 10,6 C 98 % 1009,0 hPa 0,0 l/m 0 min 0 min 59 W/m 3,2 km/h (1 Bft) 95,74 %
23.09.2018 09:22 11,4 C 11,1 C 10,6 C 98 % 1009,1 hPa 0,0 l/m 0 min 0 min 53 W/m 6,4 km/h (2 Bft) 97,87 %
23.09.2018 09:24 11,4 C 11,1 C 10,6 C 98 % 1009,0 hPa 0,0 l/m 0 min 0 min 51 W/m 6,4 km/h (2 Bft) 97,87 %
23.09.2018 09:26 11,4 C 11,1 C 10,6 C 98 % 1009,0 hPa 0,0 l/m 0 min 0 min 57 W/m 3,2 km/h (1 Bft) 97,83 %
23.09.2018 09:28 11,4 C 11,1 C 10,6 C 98 % 1009,0 hPa 0,0 l/m 0 min 0 min 63 W/m 3,2 km/h (1 Bft) 97,87 %
23.09.2018 09:30 11,4 C 11,1 C 10,6 C 98 % 1008,9 hPa 0,0 l/m 0 min 0 min 73 W/m 3,2 km/h (1 Bft) 97,87 %
23.09.2018 09:32 11,5 C 11,1 C 10,6 C 98 % 1008,9 hPa 0,0 l/m 0 min 0 min 75 W/m 3,2 km/h (1 Bft) 97,96 %
23.09.2018 09:34 11,5 C 11,1 C 10,6 C 98 % 1008,9 hPa 0,0 l/m 0 min 0 min 64 W/m 6,4 km/h (2 Bft) 97,87 %
23.09.2018 09:38 11,5 C 11,1 C 10,6 C 98 % 1008,9 hPa 0,0 l/m 0 min 0 min 66 W/m 6,4 km/h (2 Bft) 97,85 %
23.09.2018 09:40 11,5 C 11,1 C 10,6 C 98 % 1008,7 hPa 0,0 l/m 0 min 0 min 67 W/m 3,2 km/h (1 Bft) 97,87 %
23.09.2018 09:42 11,5 C 11,1 C 10,6 C 98 % 1008,7 hPa 0,0 l/m 0 min 0 min 68 W/m 3,2 km/h (1 Bft) 97,87 %
23.09.2018 09:44 11,6 C 11,1 C 10,6 C 98 % 1008,5 hPa 0,0 l/m 0 min 0 min 71 W/m 3,2 km/h (1 Bft) 97,87 %
23.09.2018 09:46 11,6 C 11,1 C 10,6 C 98 % 1008,5 hPa 0,0 l/m 0 min 0 min 75 W/m 3,2 km/h (1 Bft) 97,87 %
23.09.2018 09:48 11,6 C 11,1 C 10,6 C 98 % 1008,6 hPa 0,0 l/m 0 min 0 min 62 W/m 3,2 km/h (1 Bft) 97,83 %
23.09.2018 09:50 11,6 C 11,1 C 10,6 C 98 % 1008,6 hPa 0,0 l/m 0 min 0 min 54 W/m 0,0 km/h (0 Bft) 97,87 %
23.09.2018 09:52 11,6 C 11,1 C 10,6 C 98 % 1008,6 hPa 0,0 l/m 0 min 0 min 62 W/m 0,0 km/h (0 Bft) 93,62 %
23.09.2018 09:54 11,6 C 11,1 C 10,6 C 98 % 1008,7 hPa 0,0 l/m 0 min 0 min 64 W/m 0,0 km/h (0 Bft) 100,00 %
23.09.2018 09:56 11,6 C 11,1 C 10,6 C 98 % 1008,6 hPa 0,0 l/m 0 min 0 min 64 W/m 0,0 km/h (0 Bft) 97,87 %
23.09.2018 09:58 11,7 C 11,1 C 11,1 C 98 % 1008,6 hPa 0,0 l/m 0 min 0 min 65 W/m 6,4 km/h (2 Bft) 100,00 %
23.09.2018 10:00 11,7 C 11,1 C 10,6 C 98 % 1008,6 hPa 0,0 l/m 0 min 0 min 67 W/m 3,2 km/h (1 Bft) 97,83 %
23.09.2018 10:02 11,7 C 11,7 C 11,1 C 98 % 1008,7 hPa 0,0 l/m 0 min 0 min 76 W/m 3,2 km/h (1 Bft) 97,87 %
23.09.2018 10:04 11,7 C 11,7 C 11,1 C 98 % 1008,9 hPa 0,0 l/m 0 min 0 min 73 W/m 9,7 km/h (2 Bft) 95,74 %
23.09.2018 10:08 11,7 C 11,1 C 10,6 C 98 % 1008,9 hPa 0,0 l/m 0 min 0 min 63 W/m 6,4 km/h (2 Bft) 97,87 %
23.09.2018 10:10 11,7 C 11,1 C 10,6 C 98 % 1008,9 hPa 0,0 l/m 0 min 0 min 60 W/m 3,2 km/h (1 Bft) 97,87 %
23.09.2018 10:12 11,7 C 11,1 C 10,6 C 98 % 1008,9 hPa 0,0 l/m 0 min 0 min 76 W/m 0,0 km/h (0 Bft) 97,83 %
23.09.2018 10:14 11,7 C 11,7 C 11,1 C 98 % 1008,7 hPa 0,0 l/m 0 min 0 min 99 W/m 0,0 km/h (0 Bft) 97,87 %
23.09.2018 10:16 11,7 C 11,7 C 11,1 C 98 % 1008,6 hPa 0,0 l/m 0 min 0 min 111 W/m 0,0 km/h (0 Bft) 97,87 %
23.09.2018 10:18 11,8 C 11,7 C 11,1 C 98 % 1008,6 hPa 0,0 l/m 0 min 0 min 94 W/m 0,0 km/h (0 Bft) 97,87 %
23.09.2018 10:20 11,8 C 11,7 C 11,1 C 98 % 1008,6 hPa 0,0 l/m 0 min 0 min 94 W/m 0,0 km/h (0 Bft) 97,87 %
23.09.2018 10:22 11,8 C 11,7 C 11,1 C 98 % 1008,6 hPa 0,0 l/m 0 min 0 min 96 W/m 0,0 km/h (0 Bft) 95,74 %
23.09.2018 10:24 11,8 C 11,7 C 11,1 C 98 % 1008,6 hPa 0,0 l/m 0 min 0 min 82 W/m 0,0 km/h (0 Bft) 97,83 %
23.09.2018 10:26 11,8 C 11,7 C 11,1 C 98 % 1008,6 hPa 0,0 l/m 0 min 0 min 75 W/m 0,0 km/h (0 Bft) 97,87 %
23.09.2018 10:28 11,8 C 11,7 C 11,1 C 98 % 1008,6 hPa 0,0 l/m 0 min 0 min 70 W/m 0,0 km/h (0 Bft) 97,87 %
23.09.2018 10:30 11,8 C 11,7 C 11,1 C 98 % 1008,6 hPa 0,0 l/m 0 min 0 min 72 W/m 0,0 km/h (0 Bft) 97,87 %
23.09.2018 10:32 11,8 C 11,7 C 11,1 C 98 % 1008,5 hPa 0,0 l/m 0 min 0 min 69 W/m 3,2 km/h (1 Bft) 97,87 %
23.09.2018 10:34 11,9 C 11,7 C 11,1 C 98 % 1008,4 hPa 0,0 l/m 0 min 0 min 73 W/m 0,0 km/h (0 Bft) 97,87 %
23.09.2018 10:38 11,9 C 11,7 C 11,1 C 98 % 1008,2 hPa 0,0 l/m 0 min 0 min 89 W/m 0,0 km/h (0 Bft) 96,77 %
23.09.2018 10:40 11,9 C 11,7 C 11,1 C 98 % 1008,3 hPa 0,0 l/m 0 min 0 min 90 W/m 0,0 km/h (0 Bft) 97,87 %
23.09.2018 10:42 11,9 C 11,7 C 11,1 C 98 % 1008,4 hPa 0,0 l/m 0 min 2 min 74 W/m 9,7 km/h (2 Bft) 97,87 %
23.09.2018 10:44 11,9 C 11,7 C 11,1 C 98 % 1008,4 hPa 0,0 l/m 0 min 2 min 60 W/m 6,4 km/h (2 Bft) 97,87 %
23.09.2018 10:46 11,9 C 11,1 C 11,1 C 98 % 1008,3 hPa 0,0 l/m 0 min 2 min 56 W/m 9,7 km/h (2 Bft) 97,87 %
23.09.2018 10:48 11,9 C 11,1 C 11,1 C 98 % 1008,3 hPa 0,0 l/m 0 min 0 min 55 W/m 6,4 km/h (2 Bft) 100,00 %
23.09.2018 10:50 11,9 C 11,1 C 11,1 C 98 % 1008,3 hPa 0,0 l/m 0 min 2 min 52 W/m 3,2 km/h (1 Bft) 97,87 %
23.09.2018 10:52 11,9 C 11,1 C 11,1 C 98 % 1008,3 hPa 0,0 l/m 0 min 2 min 50 W/m 3,2 km/h (1 Bft) 100,00 %
23.09.2018 10:54 11,9 C 11,7 C 11,1 C 98 % 1008,1 hPa 0,0 l/m 0 min 0 min 56 W/m 3,2 km/h (1 Bft) 97,87 %
23.09.2018 10:56 11,9 C 11,7 C 11,1 C 98 % 1008,1 hPa 0,0 l/m 0 min 2 min 69 W/m 3,2 km/h (1 Bft) 97,87 %
23.09.2018 10:58 11,9 C 11,7 C 11,1 C 98 % 1008,1 hPa 0,0 l/m 0 min 2 min 82 W/m 0,0 km/h (0 Bft) 97,83 %
23.09.2018 11:00 11,9 C 11,7 C 11,1 C 98 % 1008,0 hPa 0,0 l/m 0 min 2 min 86 W/m 0,0 km/h (0 Bft) 97,87 %
23.09.2018 11:02 11,9 C 11,7 C 11,1 C 98 % 1008,0 hPa 0,0 l/m 0 min 2 min 80 W/m 6,4 km/h (2 Bft) 97,87 %
23.09.2018 11:04 11,9 C 11,7 C 11,1 C 98 % 1008,0 hPa 0,0 l/m 0 min 2 min 79 W/m 3,2 km/h (1 Bft) 97,87 %
23.09.2018 11:08 12,0 C 11,7 C 11,1 C 98 % 1008,0 hPa 0,0 l/m 0 min 0 min 64 W/m 6,4 km/h (2 Bft) 95,74 %
23.09.2018 11:10 11,9 C 11,1 C 11,1 C 98 % 1007,9 hPa 0,0 l/m 0 min 0 min 48 W/m 3,2 km/h (1 Bft) 97,83 %
23.09.2018 11:12 12,0 C 11,1 C 11,1 C 98 % 1008,0 hPa 0,0 l/m 0 min 0 min 41 W/m 0,0 km/h (0 Bft) 97,87 %
23.09.2018 11:14 12,0 C 11,1 C 11,1 C 98 % 1008,0 hPa 0,0 l/m 0 min 0 min 37 W/m 3,2 km/h (1 Bft) 97,87 %
23.09.2018 11:16 11,9 C 11,1 C 11,1 C 98 % 1008,0 hPa 0,0 l/m 0 min 0 min 35 W/m 3,2 km/h (1 Bft) 95,74 %
23.09.2018 11:18 12,0 C 11,1 C 11,1 C 98 % 1008,0 hPa 0,0 l/m 0 min 0 min 38 W/m 3,2 km/h (1 Bft) 97,87 %
23.09.2018 11:20 12,0 C 11,1 C 11,1 C 98 % 1008,0 hPa 0,0 l/m 0 min 2 min 43 W/m 0,0 km/h (0 Bft) 97,87 %
23.09.2018 11:22 11,9 C 11,1 C 11,1 C 98 % 1008,0 hPa 0,0 l/m 0 min 2 min 50 W/m 6,4 km/h (2 Bft) 96,23 %
23.09.2018 11:24 12,0 C 11,1 C 11,1 C 98 % 1007,9 hPa 0,0 l/m 0 min 2 min 53 W/m 9,7 km/h (2 Bft) 94,29 %
23.09.2018 11:26 11,9 C 11,1 C 11,1 C 98 % 1007,8 hPa 0,0 l/m 0 min 2 min 58 W/m 6,4 km/h (2 Bft) 97,87 %
23.09.2018 11:28 11,9 C 11,1 C 11,1 C 98 % 1007,6 hPa 0,2 l/m 0 min 2 min 68 W/m 6,4 km/h (2 Bft) 97,87 %
23.09.2018 11:30 11,9 C 11,7 C 11,1 C 98 % 1007,5 hPa 0,0 l/m 0 min 2 min 75 W/m 3,2 km/h (1 Bft) 97,87 %
23.09.2018 11:32 11,9 C 11,7 C 11,1 C 98 % 1007,5 hPa 0,0 l/m 0 min 2 min 71 W/m 6,4 km/h (2 Bft) 97,83 %
23.09.2018 11:34 12,0 C 11,7 C 11,1 C 98 % 1007,4 hPa 0,0 l/m 0 min 2 min 81 W/m 6,4 km/h (2 Bft) 87,23 %
23.09.2018 11:38 12,0 C 11,7 C 11,1 C 98 % 1007,4 hPa 0,0 l/m 0 min 4 min 76 W/m 3,2 km/h (1 Bft) 72,63 %
23.09.2018 11:40 12,0 C 11,7 C 11,1 C 98 % 1007,4 hPa 0,0 l/m 0 min 2 min 75 W/m 3,2 km/h (1 Bft) 68,09 %
23.09.2018 11:42 12,0 C 11,1 C 11,1 C 98 % 1007,4 hPa 0,2 l/m 0 min 2 min 76 W/m 9,7 km/h (2 Bft) 85,11 %
23.09.2018 11:44 12,0 C 11,7 C 11,1 C 98 % 1007,3 hPa 0,0 l/m 0 min 2 min 78 W/m 3,2 km/h (1 Bft) 86,96 %
23.09.2018 11:46 12,0 C 11,7 C 11,1 C 98 % 1007,2 hPa 0,0 l/m 0 min 2 min 81 W/m 6,4 km/h (2 Bft) 85,11 %
23.09.2018 11:48 12,1 C 11,7 C 11,1 C 98 % 1007,1 hPa 0,0 l/m 0 min 2 min 99 W/m 3,2 km/h (1 Bft) 82,98 %
23.09.2018 11:50 12,1 C 11,7 C 11,1 C 98 % 1006,9 hPa 0,0 l/m 0 min 2 min 106 W/m 0,0 km/h (0 Bft) 70,21 %
23.09.2018 11:52 12,1 C 11,7 C 11,1 C 98 % 1006,9 hPa 0,2 l/m 0 min 2 min 93 W/m 0,0 km/h (0 Bft) 68,09 %
23.09.2018 11:54 12,1 C 11,7 C 11,1 C 98 % 1006,9 hPa 0,0 l/m 0 min 2 min 78 W/m 0,0 km/h (0 Bft) 55,32 %
23.09.2018 11:56 12,1 C 11,7 C 11,1 C 99 % 1006,9 hPa 0,0 l/m 0 min 2 min 56 W/m 0,0 km/h (0 Bft) 43,48 %
23.09.2018 11:58 12,1 C 11,7 C 11,1 C 99 % 1006,8 hPa 0,0 l/m 0 min 2 min 58 W/m 6,4 km/h (2 Bft) 48,94 %
23.09.2018 12:00 12,1 C 11,7 C 11,1 C 99 % 1006,6 hPa 0,0 l/m 0 min 2 min 100 W/m 6,4 km/h (2 Bft) 51,06 %
23.09.2018 12:02 12,1 C 11,7 C 11,1 C 99 % 1006,6 hPa 0,2 l/m 0 min 2 min 96 W/m 6,4 km/h (2 Bft) 65,85 %
23.09.2018 12:04 12,1 C 11,7 C 11,1 C 99 % 1006,6 hPa 0,0 l/m 0 min 2 min 91 W/m 3,2 km/h (1 Bft) 68,09 %
23.09.2018 12:07 12,1 C 11,7 C 11,1 C 99 % 1006,6 hPa 0,0 l/m 0 min 3 min 39 W/m 6,4 km/h (2 Bft) 68,09 %
23.09.2018 12:08 12,1 C 11,1 C 11,1 C 99 % 1006,6 hPa 0,0 l/m 0 min 1 min 50 W/m 6,4 km/h (2 Bft) 71,28 %
23.09.2018 12:10 12,1 C 11,1 C 11,1 C 99 % 1006,6 hPa 0,0 l/m 0 min 2 min 36 W/m 3,2 km/h (1 Bft) 85,11 %
23.09.2018 12:12 12,1 C 11,1 C 11,1 C 99 % 1006,7 hPa 0,0 l/m 0 min 2 min 32 W/m 3,2 km/h (1 Bft) 89,13 %
23.09.2018 12:14 12,1 C 11,7 C 11,1 C 99 % 1006,7 hPa 0,0 l/m 0 min 2 min 27 W/m 3,2 km/h (1 Bft) 95,74 %
23.09.2018 12:16 12,1 C 11,1 C 11,1 C 99 % 1006,7 hPa 0,0 l/m 0 min 2 min 34 W/m 0,0 km/h (0 Bft) 97,92 %
23.09.2018 12:18 12,1 C 11,1 C 11,1 C 99 % 1006,6 hPa 0,0 l/m 0 min 2 min 42 W/m 6,4 km/h (2 Bft) 91,49 %
23.09.2018 12:20 12,1 C 11,1 C 11,1 C 99 % 1006,6 hPa 0,0 l/m 0 min 2 min 40 W/m 3,2 km/h (1 Bft) 87,93 %
23.09.2018 12:22 12,1 C 11,1 C 11,1 C 99 % 1006,6 hPa 0,2 l/m 0 min 2 min 33 W/m 9,7 km/h (2 Bft) 82,86 %
23.09.2018 12:24 12,1 C 11,1 C 11,1 C 99 % 1006,6 hPa 0,2 l/m 0 min 2 min 35 W/m 6,4 km/h (2 Bft) 76,60 %
23.09.2018 12:26 12,1 C 11,1 C 11,1 C 99 % 1006,7 hPa 0,0 l/m 0 min 2 min 36 W/m 6,4 km/h (2 Bft) 91,49 %
23.09.2018 12:28 12,1 C 11,1 C 10,6 C 99 % 1006,7 hPa 0,2 l/m 0 min 2 min 32 W/m 6,4 km/h (2 Bft) 72,34 %
23.09.2018 12:30 12,1 C 11,1 C 11,1 C 98 % 1006,8 hPa 0,0 l/m 0 min 2 min 24 W/m 3,2 km/h (1 Bft) 85,11 %
23.09.2018 12:32 12,1 C 11,1 C 11,1 C 98 % 1006,9 hPa 0,2 l/m 0 min 2 min 22 W/m 6,4 km/h (2 Bft) 86,00 %
23.09.2018 12:35 12,1 C 11,1 C 11,1 C 98 % 1007,0 hPa 0,6 l/m 0 min 3 min 23 W/m 6,4 km/h (2 Bft) 94,74 %
23.09.2018 12:40 12,0 C 11,1 C 11,1 C 98 % 1007,0 hPa 0,4 l/m 0 min 5 min 21 W/m 6,4 km/h (2 Bft) 92,98 %
23.09.2018 12:44 12,0 C 11,1 C 11,1 C 98 % 1007,2 hPa 0,2 l/m 0 min 4 min 20 W/m 0,0 km/h (0 Bft) 92,36 %
23.09.2018 12:46 12,0 C 11,1 C 11,1 C 98 % 1007,2 hPa 0,4 l/m 0 min 2 min 15 W/m 6,4 km/h (2 Bft) 95,74 %
23.09.2018 12:48 12,0 C 11,1 C 10,6 C 98 % 1006,9 hPa 0,2 l/m 0 min 2 min 20 W/m 16,1 km/h (3 Bft) 91,67 %
23.09.2018 12:50 12,0 C 11,1 C 10,6 C 98 % 1006,9 hPa 0,2 l/m 0 min 2 min 29 W/m 9,7 km/h (2 Bft) 93,62 %
23.09.2018 12:52 12,0 C 11,1 C 10,6 C 98 % 1006,8 hPa 0,2 l/m 0 min 2 min 26 W/m 9,7 km/h (2 Bft) 93,62 %
23.09.2018 12:54 11,9 C 11,1 C 10,6 C 98 % 1006,8 hPa 0,2 l/m 0 min 2 min 25 W/m 9,7 km/h (2 Bft) 88,57 %
23.09.2018 12:56 11,9 C 11,1 C 10,6 C 98 % 1006,7 hPa 0,0 l/m 0 min 2 min 27 W/m 9,7 km/h (2 Bft) 85,11 %
23.09.2018 12:58 11,9 C 11,1 C 10,6 C 98 % 1006,7 hPa 0,2 l/m 0 min 2 min 36 W/m 6,4 km/h (2 Bft) 95,65 %
23.09.2018 13:00 11,9 C 11,1 C 10,6 C 98 % 1006,4 hPa 0,2 l/m 0 min 2 min 54 W/m 12,9 km/h (3 Bft) 89,36 %
23.09.2018 13:02 11,9 C 11,1 C 10,6 C 98 % 1006,5 hPa 0,2 l/m 0 min 2 min 74 W/m 6,4 km/h (2 Bft) 91,49 %
23.09.2018 13:04 11,9 C 11,1 C 10,6 C 98 % 1006,6 hPa 0,0 l/m 0 min 2 min 85 W/m 6,4 km/h (2 Bft) 93,62 %
23.09.2018 13:08 11,9 C 11,1 C 10,6 C 98 % 1006,4 hPa 0,4 l/m 0 min 4 min 100 W/m 12,9 km/h (3 Bft) 94,68 %
23.09.2018 13:10 11,9 C 11,1 C 10,6 C 98 % 1006,2 hPa 0,0 l/m 0 min 2 min 132 W/m 6,4 km/h (2 Bft) 95,65 %
23.09.2018 13:12 11,9 C 11,1 C 10,6 C 98 % 1006,1 hPa 0,2 l/m 0 min 2 min 141 W/m 9,7 km/h (2 Bft) 97,87 %
23.09.2018 13:14 11,9 C 11,1 C 10,6 C 99 % 1006,2 hPa 0,0 l/m 0 min 2 min 127 W/m 16,1 km/h (3 Bft) 95,74 %
23.09.2018 13:16 11,9 C 11,1 C 10,6 C 98 % 1006,3 hPa 0,2 l/m 0 min 2 min 65 W/m 12,9 km/h (3 Bft) 97,87 %
23.09.2018 13:18 11,9 C 11,1 C 10,6 C 98 % 1006,3 hPa 0,0 l/m 0 min 2 min 43 W/m 16,1 km/h (3 Bft) 95,74 %
23.09.2018 13:20 11,9 C 11,1 C 10,6 C 99 % 1006,0 hPa 0,0 l/m 0 min 2 min 67 W/m 6,4 km/h (2 Bft) 93,62 %
23.09.2018 13:22 11,8 C 11,1 C 10,6 C 99 % 1005,6 hPa 0,0 l/m 0 min 2 min 113 W/m 29,0 km/h (5 Bft) 92,45 %
23.09.2018 13:24 11,8 C 11,1 C 10,6 C 99 % 1005,4 hPa 0,2 l/m 0 min 2 min 164 W/m 16,1 km/h (3 Bft) 93,48 %
23.09.2018 13:26 11,8 C 11,1 C 10,6 C 99 % 1005,1 hPa 0,0 l/m 0 min 2 min 166 W/m 16,1 km/h (3 Bft) 97,87 %
23.09.2018 13:28 11,8 C 11,1 C 10,6 C 99 % 1004,8 hPa 0,0 l/m 0 min 2 min 128 W/m 19,3 km/h (3 Bft) 97,87 %
23.09.2018 13:30 11,8 C 11,1 C 10,6 C 99 % 1005,0 hPa 0,0 l/m 0 min 2 min 82 W/m 9,7 km/h (2 Bft) 95,74 %
23.09.2018 13:32 11,8 C 11,1 C 10,6 C 99 % 1005,2 hPa 0,0 l/m 0 min 2 min 61 W/m 9,7 km/h (2 Bft) 97,87 %
23.09.2018 13:34 11,8 C 11,1 C 10,6 C 99 % 1005,0 hPa 0,0 l/m 0 min 2 min 60 W/m 22,5 km/h (4 Bft) 97,87 %
23.09.2018 13:38 11,8 C 11,1 C 10,6 C 99 % 1004,7 hPa 0,0 l/m 0 min 4 min 87 W/m 6,4 km/h (2 Bft) 97,85 %
23.09.2018 13:40 11,8 C 11,1 C 10,6 C 99 % 1004,7 hPa 0,0 l/m 0 min 2 min 65 W/m 12,9 km/h (3 Bft) 97,87 %
23.09.2018 13:42 11,8 C 11,1 C 10,6 C 99 % 1004,6 hPa 0,2 l/m 0 min 2 min 63 W/m 16,1 km/h (3 Bft) 95,74 %
23.09.2018 13:44 11,8 C 11,1 C 10,6 C 99 % 1004,9 hPa 0,0 l/m 0 min 2 min 35 W/m 16,1 km/h (3 Bft) 97,87 %
23.09.2018 13:46 11,8 C 11,1 C 10,6 C 99 % 1005,4 hPa 0,0 l/m 0 min 2 min 24 W/m 16,1 km/h (3 Bft) 97,67 %
23.09.2018 13:48 11,8 C 11,1 C 10,6 C 99 % 1005,8 hPa 0,0 l/m 0 min 2 min 21 W/m 12,9 km/h (3 Bft) 97,87 %
23.09.2018 13:50 11,7 C 10,6 C 10,6 C 99 % 1006,1 hPa 0,0 l/m 0 min 2 min 21 W/m 12,9 km/h (3 Bft) 97,87 %
23.09.2018 13:52 11,7 C 10,6 C 10,6 C 99 % 1006,5 hPa 0,2 l/m 0 min 2 min 25 W/m 12,9 km/h (3 Bft) 93,62 %
23.09.2018 13:54 11,7 C 10,6 C 10,6 C 99 % 1006,5 hPa 0,2 l/m 0 min 2 min 26 W/m 22,5 km/h (4 Bft) 93,62 %
23.09.2018 13:56 11,7 C 10,6 C 10,6 C 98 % 1006,5 hPa 0,4 l/m 0 min 2 min 27 W/m 12,9 km/h (3 Bft) 91,30 %
23.09.2018 13:58 11,7 C 10,6 C 10,6 C 98 % 1006,3 hPa 0,4 l/m 0 min 2 min 34 W/m 9,7 km/h (2 Bft) 95,74 %
23.09.2018 14:00 11,6 C 10,6 C 10,6 C 98 % 1006,2 hPa 0,2 l/m 0 min 2 min 61 W/m 16,1 km/h (3 Bft) 89,36 %
23.09.2018 14:02 11,6 C 10,6 C 10,6 C 98 % 1006,3 hPa 0,2 l/m 0 min 2 min 71 W/m 12,9 km/h (3 Bft) 80,85 %
23.09.2018 14:04 11,6 C 10,6 C 10,6 C 98 % 1006,2 hPa 0,2 l/m 0 min 2 min 66 W/m 19,3 km/h (3 Bft) 89,36 %
23.09.2018 14:08 11,6 C 10,6 C 10,6 C 98 % 1006,3 hPa 0,2 l/m 0 min 4 min 58 W/m 22,5 km/h (4 Bft) 94,62 %
23.09.2018 14:10 11,6 C 10,6 C 10,6 C 98 % 1006,4 hPa 0,2 l/m 0 min 2 min 45 W/m 19,3 km/h (3 Bft) 91,49 %
23.09.2018 14:12 11,5 C 10,6 C 10,0 C 98 % 1006,3 hPa 0,0 l/m 0 min 2 min 48 W/m 19,3 km/h (3 Bft) 93,62 %
23.09.2018 14:14 11,4 C 10,6 C 10,0 C 98 % 1006,4 hPa 0,0 l/m 0 min 2 min 54 W/m 19,3 km/h (3 Bft) 100,00 %
23.09.2018 14:16 11,4 C 10,6 C 10,6 C 98 % 1006,5 hPa 0,0 l/m 0 min 2 min 54 W/m 16,1 km/h (3 Bft) 97,87 %
23.09.2018 14:18 11,4 C 10,6 C 10,0 C 99 % 1006,8 hPa 0,2 l/m 0 min 2 min 53 W/m 19,3 km/h (3 Bft) 95,74 %
23.09.2018 14:20 11,4 C 10,6 C 10,0 C 99 % 1006,9 hPa 0,0 l/m 0 min 2 min 47 W/m 25,7 km/h (4 Bft) 97,83 %
23.09.2018 14:22 11,4 C 10,6 C 10,0 C 99 % 1006,8 hPa 0,0 l/m 0 min 2 min 47 W/m 25,7 km/h (4 Bft) 97,87 %
23.09.2018 14:24 11,4 C 10,6 C 10,0 C 99 % 1006,7 hPa 0,0 l/m 0 min 2 min 61 W/m 25,7 km/h (4 Bft) 97,87 %
23.09.2018 14:26 11,3 C 10,6 C 10,0 C 99 % 1006,7 hPa 0,2 l/m 0 min 2 min 55 W/m 25,7 km/h (4 Bft) 97,87 %
23.09.2018 14:28 11,3 C 10,6 C 10,0 C 98 % 1006,9 hPa 0,0 l/m 0 min 2 min 51 W/m 19,3 km/h (3 Bft) 97,87 %
23.09.2018 14:30 11,3 C 10,6 C 10,0 C 98 % 1007,0 hPa 0,0 l/m 0 min 2 min 57 W/m 32,2 km/h (5 Bft) 100,00 %
23.09.2018 14:32 11,2 C 10,6 C 10,0 C 98 % 1006,9 hPa 0,2 l/m 0 min 2 min 58 W/m 29,0 km/h (5 Bft) 97,83 %
23.09.2018 14:34 11,2 C 10,6 C 10,0 C 98 % 1006,9 hPa 0,2 l/m 0 min 2 min 57 W/m 19,3 km/h (3 Bft) 93,62 %
23.09.2018 14:38 11,2 C 10,0 C 10,0 C 98 % 1006,4 hPa 0,2 l/m 0 min 4 min 72 W/m 32,2 km/h (5 Bft) 96,00 %
23.09.2018 14:40 11,1 C 10,0 C 10,0 C 98 % 1006,4 hPa 0,2 l/m 0 min 2 min 99 W/m 22,5 km/h (4 Bft) 100,00 %
23.09.2018 14:42 11,1 C 10,6 C 10,0 C 98 % 1006,2 hPa 0,0 l/m 0 min 2 min 100 W/m 25,7 km/h (4 Bft) 95,74 %
23.09.2018 14:44 11,1 C 10,0 C 10,0 C 98 % 1006,2 hPa 0,2 l/m 0 min 2 min 89 W/m 38,6 km/h (5 Bft) 100,00 %
23.09.2018 14:46 11,0 C 10,0 C 10,0 C 98 % 1006,4 hPa 0,0 l/m 0 min 2 min 70 W/m 16,1 km/h (3 Bft) 100,00 %
23.09.2018 14:48 11,0 C 10,0 C 10,0 C 98 % 1006,4 hPa 0,0 l/m 0 min 2 min 47 W/m 16,1 km/h (3 Bft) 100,00 %
23.09.2018 14:50 10,9 C 10,0 C 10,0 C 98 % 1006,5 hPa 0,0 l/m 0 min 2 min 42 W/m 9,7 km/h (2 Bft) 100,00 %
23.09.2018 14:52 10,9 C 10,0 C 10,0 C 98 % 1006,6 hPa 0,0 l/m 0 min 2 min 40 W/m 6,4 km/h (2 Bft) 100,00 %
23.09.2018 14:54 10,9 C 10,0 C 10,0 C 98 % 1006,5 hPa 0,2 l/m 0 min 2 min 41 W/m 25,7 km/h (4 Bft) 100,00 %
23.09.2018 14:56 10,9 C 10,0 C 10,0 C 98 % 1006,4 hPa 0,0 l/m 0 min 2 min 52 W/m 12,9 km/h (3 Bft) 95,74 %
23.09.2018 14:58 10,9 C 10,0 C 10,0 C 98 % 1006,5 hPa 0,0 l/m 0 min 2 min 55 W/m 32,2 km/h (5 Bft) 100,00 %
23.09.2018 15:00 10,8 C 10,0 C 9,4 C 98 % 1006,4 hPa 0,0 l/m 0 min 2 min 60 W/m 29,0 km/h (5 Bft) 100,00 %
23.09.2018 15:02 10,8 C 10,0 C 9,4 C 98 % 1006,2 hPa 0,0 l/m 0 min 2 min 76 W/m 32,2 km/h (5 Bft) 97,92 %
23.09.2018 15:04 10,8 C 10,0 C 9,4 C 98 % 1006,2 hPa 0,2 l/m 0 min 2 min 89 W/m 25,7 km/h (4 Bft) 100,00 %
23.09.2018 15:08 10,8 C 10,0 C 9,4 C 98 % 1006,6 hPa 0,0 l/m 0 min 4 min 64 W/m 22,5 km/h (4 Bft) 98,92 %
23.09.2018 15:10 10,8 C 10,0 C 9,4 C 98 % 1006,7 hPa 0,0 l/m 0 min 2 min 46 W/m 22,5 km/h (4 Bft) 100,00 %
23.09.2018 15:12 10,7 C 10,0 C 9,4 C 98 % 1006,7 hPa 0,2 l/m 0 min 2 min 42 W/m 25,7 km/h (4 Bft) 100,00 %
23.09.2018 15:14 10,7 C 10,0 C 9,4 C 98 % 1006,6 hPa 0,0 l/m 0 min 2 min 45 W/m 22,5 km/h (4 Bft) 100,00 %
23.09.2018 15:16 10,7 C 10,0 C 9,4 C 98 % 1006,5 hPa 0,0 l/m 0 min 2 min 54 W/m 25,7 km/h (4 Bft) 100,00 %
23.09.2018 15:18 10,7 C 10,0 C 9,4 C 98 % 1006,5 hPa 0,0 l/m 0 min 2 min 48 W/m 16,1 km/h (3 Bft) 95,74 %
23.09.2018 15:20 10,7 C 10,0 C 9,4 C 98 % 1006,8 hPa 0,0 l/m 0 min 2 min 39 W/m 12,9 km/h (3 Bft) 97,87 %
23.09.2018 15:22 10,6 C 10,0 C 9,4 C 98 % 1006,7 hPa 0,0 l/m 0 min 2 min 56 W/m 9,7 km/h (2 Bft) 100,00 %
23.09.2018 15:24 10,7 C 10,0 C 9,4 C 98 % 1006,6 hPa 0,0 l/m 0 min 2 min 94 W/m 3,2 km/h (1 Bft) 97,87 %
23.09.2018 15:26 10,7 C 10,0 C 10,0 C 98 % 1006,5 hPa 0,2 l/m 0 min 2 min 104 W/m 12,9 km/h (3 Bft) 100,00 %
23.09.2018 15:28 10,7 C 10,0 C 10,0 C 98 % 1006,5 hPa 0,0 l/m 0 min 2 min 94 W/m 16,1 km/h (3 Bft) 100,00 %
23.09.2018 15:30 10,7 C 10,0 C 10,0 C 98 % 1006,8 hPa 0,0 l/m 0 min 2 min 64 W/m 3,2 km/h (1 Bft) 100,00 %
23.09.2018 15:32 10,7 C 10,0 C 10,0 C 98 % 1006,7 hPa 0,0 l/m 0 min 2 min 72 W/m 22,5 km/h (4 Bft) 97,87 %
23.09.2018 15:34 10,7 C 10,0 C 10,0 C 98 % 1006,7 hPa 0,0 l/m 0 min 2 min 83 W/m 16,1 km/h (3 Bft) 100,00 %
23.09.2018 15:38 10,7 C 10,0 C 10,0 C 99 % 1006,8 hPa 0,0 l/m 0 min 4 min 68 W/m 16,1 km/h (3 Bft) 97,87 %
23.09.2018 15:40 10,8 C 10,0 C 10,0 C 99 % 1006,8 hPa 0,0 l/m 0 min 2 min 89 W/m 12,9 km/h (3 Bft) 97,83 %
23.09.2018 15:42 10,8 C 10,0 C 10,0 C 99 % 1007,1 hPa 0,2 l/m 0 min 2 min 77 W/m 22,5 km/h (4 Bft) 95,74 %
23.09.2018 15:44 10,8 C 10,0 C 9,4 C 99 % 1007,2 hPa 0,0 l/m 0 min 2 min 56 W/m 9,7 km/h (2 Bft) 95,74 %
23.09.2018 15:46 10,8 C 10,0 C 9,4 C 99 % 1007,4 hPa 0,0 l/m 0 min 2 min 70 W/m 16,1 km/h (3 Bft) 96,00 %
23.09.2018 15:48 10,8 C 10,0 C 9,4 C 99 % 1007,6 hPa 0,0 l/m 0 min 2 min 64 W/m 19,3 km/h (3 Bft) 95,74 %
23.09.2018 15:50 10,8 C 10,0 C 9,4 C 99 % 1007,7 hPa 0,0 l/m 0 min 2 min 42 W/m 12,9 km/h (3 Bft) 95,65 %
23.09.2018 15:52 10,8 C 10,0 C 10,0 C 99 % 1008,0 hPa 0,0 l/m 0 min 2 min 27 W/m 9,7 km/h (2 Bft) 93,62 %
23.09.2018 15:54 10,8 C 10,0 C 10,0 C 99 % 1008,1 hPa 0,0 l/m 0 min 2 min 33 W/m 16,1 km/h (3 Bft) 95,74 %
23.09.2018 15:56 10,8 C 10,0 C 10,0 C 99 % 1008,3 hPa 0,0 l/m 0 min 2 min 33 W/m 22,5 km/h (4 Bft) 95,74 %
23.09.2018 15:58 10,8 C 10,0 C 9,4 C 99 % 1008,4 hPa 0,0 l/m 0 min 2 min 30 W/m 16,1 km/h (3 Bft) 95,74 %
23.09.2018 16:00 10,8 C 10,0 C 9,4 C 99 % 1008,3 hPa 0,0 l/m 0 min 2 min 30 W/m 12,9 km/h (3 Bft) 95,74 %
23.09.2018 16:02 10,7 C 10,0 C 9,4 C 99 % 1008,3 hPa 0,0 l/m 0 min 2 min 47 W/m 32,2 km/h (5 Bft) 93,48 %
23.09.2018 16:04 10,7 C 10,0 C 9,4 C 99 % 1008,3 hPa 0,0 l/m 0 min 2 min 67 W/m 25,7 km/h (4 Bft) 95,74 %
23.09.2018 16:08 10,7 C 10,0 C 9,4 C 99 % 1008,2 hPa 0,0 l/m 0 min 4 min 95 W/m 25,7 km/h (4 Bft) 95,74 %
23.09.2018 16:10 10,7 C 10,0 C 9,4 C 99 % 1008,1 hPa 0,0 l/m 0 min 2 min 76 W/m 25,7 km/h (4 Bft) 93,62 %
23.09.2018 16:12 10,6 C 10,0 C 9,4 C 98 % 1008,3 hPa 0,2 l/m 0 min 2 min 61 W/m 22,5 km/h (4 Bft) 95,74 %
23.09.2018 16:14 10,6 C 10,0 C 9,4 C 98 % 1008,3 hPa 0,0 l/m 0 min 2 min 52 W/m 19,3 km/h (3 Bft) 95,65 %
23.09.2018 16:16 10,6 C 10,0 C 9,4 C 98 % 1008,4 hPa 0,0 l/m 0 min 2 min 60 W/m 19,3 km/h (3 Bft) 93,62 %
23.09.2018 16:18 10,6 C 10,0 C 9,4 C 98 % 1008,4 hPa 0,0 l/m 0 min 2 min 78 W/m 19,3 km/h (3 Bft) 93,62 %
23.09.2018 16:20 10,6 C 10,0 C 9,4 C 98 % 1008,4 hPa 0,0 l/m 0 min 2 min 109 W/m 19,3 km/h (3 Bft) 93,62 %
23.09.2018 16:22 10,6 C 10,0 C 9,4 C 98 % 1008,4 hPa 0,2 l/m 0 min 2 min 125 W/m 25,7 km/h (4 Bft) 91,49 %
23.09.2018 16:24 10,6 C 10,0 C 9,4 C 98 % 1008,4 hPa 0,0 l/m 0 min 2 min 151 W/m 25,7 km/h (4 Bft) 91,49 %
23.09.2018 16:26 10,6 C 10,0 C 9,4 C 98 % 1008,3 hPa 0,0 l/m 0 min 2 min 159 W/m 12,9 km/h (3 Bft) 95,65 %
23.09.2018 16:28 10,6 C 10,0 C 9,4 C 98 % 1008,5 hPa 0,0 l/m 0 min 2 min 142 W/m 12,9 km/h (3 Bft) 95,74 %
23.09.2018 16:30 10,6 C 10,0 C 9,4 C 98 % 1008,5 hPa 0,0 l/m 0 min 2 min 140 W/m 12,9 km/h (3 Bft) 95,74 %
23.09.2018 16:32 10,6 C 10,0 C 9,4 C 98 % 1008,5 hPa 0,0 l/m 0 min 2 min 155 W/m 25,7 km/h (4 Bft) 95,74 %
23.09.2018 16:34 10,6 C 10,0 C 9,4 C 98 % 1008,5 hPa 0,0 l/m 0 min 2 min 169 W/m 22,5 km/h (4 Bft) 91,49 %
23.09.2018 16:38 10,6 C 10,0 C 9,4 C 98 % 1008,6 hPa 0,0 l/m 0 min 4 min 146 W/m 25,7 km/h (4 Bft) 95,70 %
23.09.2018 16:40 10,6 C 10,0 C 9,4 C 98 % 1008,6 hPa 0,0 l/m 0 min 2 min 104 W/m 12,9 km/h (3 Bft) 95,74 %
23.09.2018 16:42 10,6 C 10,0 C 9,4 C 98 % 1008,8 hPa 0,0 l/m 0 min 2 min 74 W/m 19,3 km/h (3 Bft) 97,67 %
23.09.2018 16:44 10,5 C 10,0 C 9,4 C 98 % 1008,7 hPa 0,0 l/m 0 min 2 min 81 W/m 9,7 km/h (2 Bft) 95,65 %
23.09.2018 16:46 10,5 C 10,0 C 9,4 C 98 % 1008,9 hPa 0,0 l/m 0 min 2 min 103 W/m 16,1 km/h (3 Bft) 95,74 %
23.09.2018 16:48 10,5 C 10,0 C 9,4 C 98 % 1008,9 hPa 0,0 l/m 0 min 2 min 96 W/m 25,7 km/h (4 Bft) 97,87 %
23.09.2018 16:50 10,5 C 10,0 C 9,4 C 98 % 1008,9 hPa 0,0 l/m 0 min 2 min 87 W/m 19,3 km/h (3 Bft) 97,87 %
23.09.2018 16:52 10,5 C 9,4 C 9,4 C 98 % 1008,9 hPa 0,0 l/m 0 min 2 min 67 W/m 19,3 km/h (3 Bft) 95,74 %
23.09.2018 16:54 10,5 C 9,4 C 9,4 C 98 % 1008,9 hPa 0,0 l/m 0 min 2 min 39 W/m 12,9 km/h (3 Bft) 95,74 %
23.09.2018 16:56 10,4 C 9,4 C 9,4 C 98 % 1009,0 hPa 0,0 l/m 0 min 2 min 35 W/m 19,3 km/h (3 Bft) 95,65 %
23.09.2018 16:58 10,4 C 9,4 C 9,4 C 98 % 1009,1 hPa 0,0 l/m 0 min 2 min 41 W/m 16,1 km/h (3 Bft) 97,87 %
23.09.2018 17:00 10,4 C 9,4 C 9,4 C 98 % 1009,3 hPa 0,0 l/m 0 min 2 min 61 W/m 16,1 km/h (3 Bft) 97,87 %
23.09.2018 17:02 10,4 C 10,0 C 9,4 C 98 % 1009,2 hPa 0,0 l/m 0 min 0 min 96 W/m 12,9 km/h (3 Bft) 95,74 %
23.09.2018 17:04 10,4 C 10,0 C 9,4 C 98 % 1009,2 hPa 0,0 l/m 0 min 0 min 133 W/m 22,5 km/h (4 Bft) 95,74 %
23.09.2018 17:08 10,4 C 9,4 C 9,4 C 98 % 1009,3 hPa 0,0 l/m 0 min 0 min 80 W/m 19,3 km/h (3 Bft) 98,92 %
23.09.2018 17:10 10,4 C 9,4 C 9,4 C 98 % 1009,3 hPa 0,0 l/m 0 min 0 min 87 W/m 16,1 km/h (3 Bft) 100,00 %
23.09.2018 17:12 10,4 C 9,4 C 9,4 C 98 % 1009,3 hPa 0,0 l/m 0 min 0 min 109 W/m 12,9 km/h (3 Bft) 97,87 %
23.09.2018 17:14 10,4 C 9,4 C 9,4 C 98 % 1009,4 hPa 0,0 l/m 0 min 0 min 103 W/m 25,7 km/h (4 Bft) 97,87 %
23.09.2018 17:16 10,3 C 9,4 C 9,4 C 98 % 1009,5 hPa 0,0 l/m 0 min 0 min 65 W/m 16,1 km/h (3 Bft) 100,00 %
23.09.2018 17:18 10,3 C 9,4 C 8,9 C 98 % 1009,6 hPa 0,0 l/m 0 min 0 min 45 W/m 19,3 km/h (3 Bft) 100,00 %
23.09.2018 17:20 10,3 C 9,4 C 9,4 C 98 % 1009,5 hPa 0,0 l/m 0 min 2 min 42 W/m 6,4 km/h (2 Bft) 100,00 %
23.09.2018 17:22 10,3 C 9,4 C 8,9 C 98 % 1009,3 hPa 0,0 l/m 0 min 0 min 57 W/m 6,4 km/h (2 Bft) 100,00 %
23.09.2018 17:24 10,3 C 9,4 C 9,4 C 98 % 1009,3 hPa 0,0 l/m 0 min 0 min 60 W/m 12,9 km/h (3 Bft) 97,87 %
23.09.2018 17:26 10,3 C 9,4 C 9,4 C 98 % 1009,5 hPa 0,0 l/m 0 min 0 min 50 W/m 16,1 km/h (3 Bft) 100,00 %
23.09.2018 17:28 10,2 C 9,4 C 8,9 C 98 % 1009,8 hPa 0,0 l/m 0 min 2 min 51 W/m 22,5 km/h (4 Bft) 100,00 %
23.09.2018 17:30 10,2 C 9,4 C 8,9 C 98 % 1009,7 hPa 0,0 l/m 0 min 2 min 86 W/m 9,7 km/h (2 Bft) 100,00 %
23.09.2018 17:32 10,2 C 9,4 C 9,4 C 98 % 1009,7 hPa 0,0 l/m 0 min 2 min 103 W/m 12,9 km/h (3 Bft) 100,00 %
23.09.2018 17:34 10,2 C 9,4 C 9,4 C 98 % 1009,6 hPa 0,0 l/m 0 min 2 min 92 W/m 12,9 km/h (3 Bft) 100,00 %
23.09.2018 17:38 10,2 C 9,4 C 8,9 C 98 % 1009,8 hPa 0,0 l/m 0 min 4 min 49 W/m 16,1 km/h (3 Bft) 100,00 %
23.09.2018 17:40 10,2 C 9,4 C 8,9 C 98 % 1009,9 hPa 0,0 l/m 0 min 0 min 22 W/m 9,7 km/h (2 Bft) 97,83 %
23.09.2018 17:42 10,2 C 9,4 C 8,9 C 98 % 1010,0 hPa 0,0 l/m 0 min 0 min 19 W/m 29,0 km/h (5 Bft) 97,87 %
23.09.2018 17:44 10,2 C 9,4 C 8,9 C 98 % 1010,1 hPa 0,0 l/m 0 min 0 min 19 W/m 25,7 km/h (4 Bft) 100,00 %
23.09.2018 17:46 10,1 C 8,9 C 8,9 C 98 % 1010,1 hPa 0,0 l/m 0 min 0 min 19 W/m 25,7 km/h (4 Bft) 100,00 %
23.09.2018 17:48 10,1 C 8,9 C 8,9 C 98 % 1010,1 hPa 0,0 l/m 0 min 0 min 19 W/m 25,7 km/h (4 Bft) 100,00 %
23.09.2018 17:50 10,0 C 8,9 C 8,9 C 98 % 1010,3 hPa 0,0 l/m 0 min 0 min 22 W/m 12,9 km/h (3 Bft) 97,87 %
23.09.2018 17:52 10,0 C 8,9 C 8,9 C 98 % 1010,3 hPa 0,0 l/m 0 min 0 min 32 W/m 12,9 km/h (3 Bft) 100,00 %
23.09.2018 17:54 9,9 C 8,9 C 8,9 C 98 % 1010,5 hPa 0,0 l/m 0 min 0 min 39 W/m 19,3 km/h (3 Bft) 100,00 %
23.09.2018 17:56 9,9 C 8,9 C 8,9 C 98 % 1010,5 hPa 0,0 l/m 0 min 0 min 39 W/m 9,7 km/h (2 Bft) 100,00 %
23.09.2018 17:58 9,9 C 8,9 C 8,9 C 98 % 1010,6 hPa 0,0 l/m 0 min 0 min 39 W/m 12,9 km/h (3 Bft) 100,00 %
23.09.2018 18:00 9,9 C 8,9 C 8,9 C 98 % 1010,7 hPa 0,0 l/m 0 min 0 min 39 W/m 22,5 km/h (4 Bft) 100,00 %
23.09.2018 18:02 9,9 C 8,9 C 8,9 C 98 % 1010,8 hPa 0,0 l/m 0 min 0 min 38 W/m 22,5 km/h (4 Bft) 100,00 %
23.09.2018 18:04 9,8 C 8,9 C 8,9 C 98 % 1010,8 hPa 0,0 l/m 0 min 0 min 35 W/m 12,9 km/h (3 Bft) 100,00 %
23.09.2018 18:08 9,8 C 8,9 C 8,9 C 98 % 1011,1 hPa 0,0 l/m 0 min 0 min 34 W/m 25,7 km/h (4 Bft) 98,94 %
23.09.2018 18:10 9,8 C 8,9 C 8,9 C 98 % 1011,2 hPa 0,0 l/m 0 min 0 min 35 W/m 29,0 km/h (5 Bft) 97,87 %
23.09.2018 18:12 9,7 C 8,9 C 8,9 C 98 % 1011,3 hPa 0,0 l/m 0 min 0 min 34 W/m 22,5 km/h (4 Bft) 100,00 %
23.09.2018 18:14 9,7 C 8,9 C 8,3 C 98 % 1011,3 hPa 0,0 l/m 0 min 2 min 32 W/m 25,7 km/h (4 Bft) 100,00 %
23.09.2018 18:16 9,6 C 8,9 C 8,3 C 98 % 1011,3 hPa 0,0 l/m 0 min 2 min 33 W/m 16,1 km/h (3 Bft) 97,83 %
23.09.2018 18:18 9,6 C 8,3 C 8,3 C 98 % 1011,3 hPa 0,0 l/m 0 min 2 min 35 W/m 19,3 km/h (3 Bft) 97,87 %
23.09.2018 18:20 9,6 C 8,3 C 8,3 C 98 % 1011,5 hPa 0,0 l/m 0 min 2 min 35 W/m 19,3 km/h (3 Bft) 97,87 %
23.09.2018 18:22 9,5 C 8,3 C 8,3 C 98 % 1011,5 hPa 0,0 l/m 0 min 2 min 34 W/m 29,0 km/h (5 Bft) 100,00 %
23.09.2018 18:24 9,5 C 8,3 C 8,3 C 98 % 1011,7 hPa 0,0 l/m 0 min 2 min 32 W/m 19,3 km/h (3 Bft) 100,00 %
23.09.2018 18:26 9,5 C 8,3 C 8,3 C 98 % 1011,8 hPa 0,0 l/m 0 min 0 min 32 W/m 16,1 km/h (3 Bft) 93,48 %
23.09.2018 18:28 9,4 C 8,3 C 8,3 C 98 % 1011,8 hPa 0,0 l/m 0 min 2 min 29 W/m 25,7 km/h (4 Bft) 97,87 %
23.09.2018 18:30 9,4 C 8,3 C 8,3 C 98 % 1012,0 hPa 0,0 l/m 0 min 2 min 27 W/m 29,0 km/h (5 Bft) 97,87 %
23.09.2018 18:32 9,4 C 8,3 C 8,3 C 98 % 1012,1 hPa 0,0 l/m 0 min 2 min 24 W/m 25,7 km/h (4 Bft) 95,74 %
23.09.2018 18:34 9,4 C 8,3 C 8,3 C 98 % 1012,2 hPa 0,0 l/m 0 min 2 min 19 W/m 16,1 km/h (3 Bft) 97,87 %
23.09.2018 18:38 9,4 C 8,3 C 8,3 C 98 % 1012,3 hPa 0,0 l/m 0 min 0 min 14 W/m 25,7 km/h (4 Bft) 96,81 %
23.09.2018 18:40 9,3 C 8,3 C 8,3 C 98 % 1012,4 hPa 0,0 l/m 0 min 0 min 12 W/m 29,0 km/h (5 Bft) 97,87 %
23.09.2018 18:42 9,3 C 8,3 C 8,3 C 98 % 1012,4 hPa 0,0 l/m 0 min 0 min 12 W/m 29,0 km/h (5 Bft) 97,87 %
23.09.2018 18:44 9,3 C 8,3 C 8,3 C 98 % 1012,5 hPa 0,0 l/m 0 min 0 min 12 W/m 22,5 km/h (4 Bft) 97,87 %
23.09.2018 18:46 9,3 C 8,3 C 8,3 C 98 % 1012,6 hPa 0,0 l/m 0 min 0 min 12 W/m 16,1 km/h (3 Bft) 97,87 %
23.09.2018 18:48 9,2 C 8,3 C 8,3 C 98 % 1012,7 hPa 0,0 l/m 0 min 0 min 12 W/m 3,2 km/h (1 Bft) 97,87 %
23.09.2018 18:50 9,2 C 8,3 C 8,3 C 98 % 1012,9 hPa 0,0 l/m 0 min 0 min 11 W/m 25,7 km/h (4 Bft) 97,83 %
23.09.2018 18:52 9,2 C 8,3 C 8,3 C 98 % 1013,0 hPa 0,0 l/m 0 min 2 min 10 W/m 19,3 km/h (3 Bft) 97,87 %
23.09.2018 18:54 9,2 C 8,3 C 8,3 C 98 % 1013,1 hPa 0,0 l/m 0 min 0 min 9 W/m 16,1 km/h (3 Bft) 95,74 %
23.09.2018 18:56 9,2 C 8,3 C 8,3 C 98 % 1013,0 hPa 0,0 l/m 0 min 0 min 7 W/m 12,9 km/h (3 Bft) 97,87 %
23.09.2018 18:58 9,2 C 8,3 C 8,3 C 98 % 1013,2 hPa 0,0 l/m 0 min 2 min 7 W/m 12,9 km/h (3 Bft) 97,87 %
23.09.2018 19:00 9,2 C 8,3 C 8,3 C 98 % 1013,2 hPa 0,0 l/m 0 min 2 min 7 W/m 22,5 km/h (4 Bft) 97,87 %
23.09.2018 19:02 9,2 C 8,3 C 8,3 C 98 % 1013,3 hPa 0,0 l/m 0 min 2 min 7 W/m 12,9 km/h (3 Bft) 97,83 %
23.09.2018 19:04 9,2 C 8,3 C 8,3 C 98 % 1013,4 hPa 0,0 l/m 0 min 2 min 6 W/m 12,9 km/h (3 Bft) 97,87 %
23.09.2018 19:08 9,2 C 8,3 C 8,3 C 98 % 1013,5 hPa 0,2 l/m 0 min 4 min 3 W/m 16,1 km/h (3 Bft) 94,68 %
23.09.2018 19:10 9,2 C 8,3 C 8,3 C 98 % 1013,6 hPa 0,0 l/m 0 min 2 min 0 W/m 12,9 km/h (3 Bft) 95,74 %
23.09.2018 19:12 9,2 C 8,3 C 8,3 C 98 % 1013,6 hPa 0,0 l/m 0 min 2 min 0 W/m 22,5 km/h (4 Bft) 97,87 %
23.09.2018 19:14 9,2 C 8,3 C 8,3 C 98 % 1013,7 hPa 0,0 l/m 0 min 2 min 0 W/m 12,9 km/h (3 Bft) 95,65 %
23.09.2018 19:16 9,2 C 8,3 C 8,3 C 98 % 1013,7 hPa 0,2 l/m 0 min 2 min 0 W/m 12,9 km/h (3 Bft) 95,74 %
23.09.2018 19:18 9,2 C 8,3 C 8,3 C 98 % 1013,8 hPa 0,0 l/m 0 min 2 min 0 W/m 12,9 km/h (3 Bft) 95,74 %
23.09.2018 19:20 9,2 C 8,3 C 8,3 C 98 % 1013,9 hPa 0,0 l/m 0 min 2 min 0 W/m 9,7 km/h (2 Bft) 95,74 %
23.09.2018 19:22 9,2 C 8,3 C 8,3 C 98 % 1013,9 hPa 0,0 l/m 0 min 2 min 0 W/m 19,3 km/h (3 Bft) 95,74 %
23.09.2018 19:24 9,2 C 8,3 C 8,3 C 98 % 1014,0 hPa 0,0 l/m 0 min 2 min 0 W/m 12,9 km/h (3 Bft) 95,65 %
23.09.2018 19:26 9,2 C 8,3 C 8,3 C 98 % 1014,1 hPa 0,0 l/m 0 min 2 min 0 W/m 12,9 km/h (3 Bft) 93,62 %
23.09.2018 19:28 9,2 C 8,3 C 8,3 C 98 % 1014,2 hPa 0,0 l/m 0 min 2 min 0 W/m 9,7 km/h (2 Bft) 95,74 %
23.09.2018 19:30 9,2 C 8,3 C 8,3 C 98 % 1014,3 hPa 0,2 l/m 0 min 2 min 0 W/m 12,9 km/h (3 Bft) 95,74 %
23.09.2018 19:32 9,2 C 8,3 C 8,3 C 98 % 1014,4 hPa 0,0 l/m 0 min 2 min 0 W/m 12,9 km/h (3 Bft) 95,74 %
23.09.2018 19:34 9,2 C 8,3 C 8,3 C 98 % 1014,4 hPa 0,0 l/m 0 min 2 min 0 W/m 9,7 km/h (2 Bft) 95,74 %
23.09.2018 19:38 9,2 C 8,3 C 8,3 C 98 % 1014,6 hPa 0,0 l/m 0 min 4 min 0 W/m 12,9 km/h (3 Bft) 95,65 %
23.09.2018 19:40 9,2 C 8,3 C 8,3 C 98 % 1014,6 hPa 0,0 l/m 0 min 2 min 0 W/m 9,7 km/h (2 Bft) 95,74 %
23.09.2018 19:42 9,2 C 8,3 C 8,3 C 98 % 1014,6 hPa 0,2 l/m 0 min 2 min 0 W/m 9,7 km/h (2 Bft) 93,62 %
23.09.2018 19:44 9,2 C 8,3 C 8,3 C 98 % 1014,7 hPa 0,0 l/m 0 min 2 min 0 W/m 12,9 km/h (3 Bft) 93,62 %
23.09.2018 19:46 9,2 C 8,3 C 8,3 C 98 % 1014,7 hPa 0,0 l/m 0 min 2 min 0 W/m 19,3 km/h (3 Bft) 95,74 %
23.09.2018 19:48 9,2 C 8,3 C 8,3 C 98 % 1014,8 hPa 0,0 l/m 0 min 2 min 0 W/m 6,4 km/h (2 Bft) 97,14 %
23.09.2018 19:50 9,2 C 8,3 C 8,3 C 98 % 1015,0 hPa 0,0 l/m 0 min 2 min 0 W/m 16,1 km/h (3 Bft) 94,92 %
23.09.2018 19:52 9,2 C 8,3 C 8,3 C 98 % 1015,1 hPa 0,0 l/m 0 min 2 min 0 W/m 9,7 km/h (2 Bft) 95,74 %
23.09.2018 19:54 9,2 C 8,3 C 8,3 C 98 % 1015,1 hPa 0,0 l/m 0 min 2 min 0 W/m 9,7 km/h (2 Bft) 97,14 %
23.09.2018 19:56 9,2 C 8,3 C 8,3 C 98 % 1015,2 hPa 0,0 l/m 0 min 2 min 0 W/m 9,7 km/h (2 Bft) 95,74 %
23.09.2018 19:58 9,3 C 8,3 C 8,3 C 98 % 1015,2 hPa 0,0 l/m 0 min 2 min 0 W/m 16,1 km/h (3 Bft) 97,87 %
23.09.2018 20:00 9,2 C 8,3 C 8,3 C 98 % 1015,3 hPa 0,0 l/m 0 min 2 min 0 W/m 16,1 km/h (3 Bft) 97,87 %
23.09.2018 20:02 9,3 C 8,3 C 8,3 C 98 % 1015,4 hPa 0,0 l/m 0 min 2 min 0 W/m 9,7 km/h (2 Bft) 97,87 %
23.09.2018 20:04 9,3 C 8,3 C 8,3 C 98 % 1015,5 hPa 0,0 l/m 0 min 2 min 0 W/m 12,9 km/h (3 Bft) 95,74 %
23.09.2018 20:08 9,3 C 8,3 C 8,3 C 98 % 1015,6 hPa 0,2 l/m 0 min 4 min 0 W/m 12,9 km/h (3 Bft) 95,74 %
23.09.2018 20:10 9,3 C 8,3 C 8,3 C 98 % 1015,6 hPa 0,0 l/m 0 min 2 min 0 W/m 12,9 km/h (3 Bft) 97,87 %
23.09.2018 20:12 9,3 C 8,3 C 8,3 C 98 % 1015,7 hPa 0,0 l/m 0 min 2 min 0 W/m 12,9 km/h (3 Bft) 97,87 %
23.09.2018 20:14 9,3 C 8,3 C 8,3 C 98 % 1015,8 hPa 0,0 l/m 0 min 2 min 0 W/m 12,9 km/h (3 Bft) 97,83 %
23.09.2018 20:16 9,3 C 8,3 C 8,3 C 98 % 1015,9 hPa 0,0 l/m 0 min 2 min 0 W/m 16,1 km/h (3 Bft) 97,87 %
23.09.2018 20:18 9,3 C 8,3 C 8,3 C 98 % 1015,9 hPa 0,0 l/m 0 min 2 min 0 W/m 16,1 km/h (3 Bft) 97,87 %
23.09.2018 20:20 9,2 C 8,3 C 8,3 C 98 % 1016,0 hPa 0,0 l/m 0 min 2 min 0 W/m 12,9 km/h (3 Bft) 100,00 %
23.09.2018 20:22 9,2 C 8,3 C 8,3 C 98 % 1016,1 hPa 0,0 l/m 0 min 2 min 0 W/m 12,9 km/h (3 Bft) 100,00 %
23.09.2018 20:24 9,2 C 8,3 C 8,3 C 98 % 1016,2 hPa 0,0 l/m 0 min 2 min 0 W/m 9,7 km/h (2 Bft) 100,00 %
23.09.2018 20:26 9,2 C 8,3 C 8,3 C 98 % 1016,2 hPa 0,2 l/m 0 min 2 min 0 W/m 12,9 km/h (3 Bft) 100,00 %
23.09.2018 20:28 9,2 C 8,3 C 8,3 C 98 % 1016,4 hPa 0,0 l/m 0 min 2 min 0 W/m 12,9 km/h (3 Bft) 93,62 %
23.09.2018 20:30 9,2 C 8,3 C 8,3 C 98 % 1016,4 hPa 0,0 l/m 0 min 2 min 0 W/m 6,4 km/h (2 Bft) 100,00 %
23.09.2018 20:32 9,2 C 8,3 C 8,3 C 98 % 1016,5 hPa 0,0 l/m 0 min 2 min 0 W/m 25,7 km/h (4 Bft) 100,00 %
23.09.2018 20:34 9,2 C 8,3 C 7,8 C 98 % 1016,6 hPa 0,0 l/m 0 min 2 min 0 W/m 16,1 km/h (3 Bft) 100,00 %
23.09.2018 20:38 9,2 C 8,3 C 7,8 C 98 % 1016,7 hPa 0,0 l/m 0 min 4 min 0 W/m 16,1 km/h (3 Bft) 97,87 %
23.09.2018 20:40 9,1 C 8,3 C 7,8 C 98 % 1016,8 hPa 0,0 l/m 0 min 2 min 0 W/m 19,3 km/h (3 Bft) 100,00 %
23.09.2018 20:42 9,1 C 8,3 C 7,8 C 98 % 1016,9 hPa 0,0 l/m 0 min 2 min 0 W/m 19,3 km/h (3 Bft) 100,00 %
23.09.2018 20:44 9,1 C 7,8 C 7,8 C 98 % 1016,9 hPa 0,0 l/m 0 min 2 min 0 W/m 19,3 km/h (3 Bft) 100,00 %
23.09.2018 20:46 9,1 C 7,8 C 7,8 C 98 % 1017,0 hPa 0,0 l/m 0 min 2 min 0 W/m 9,7 km/h (2 Bft) 100,00 %
23.09.2018 20:48 9,1 C 7,8 C 7,8 C 98 % 1017,0 hPa 0,0 l/m 0 min 2 min 0 W/m 16,1 km/h (3 Bft) 100,00 %
23.09.2018 20:50 9,0 C 7,8 C 7,8 C 98 % 1017,1 hPa 0,0 l/m 0 min 2 min 0 W/m 12,9 km/h (3 Bft) 100,00 %
23.09.2018 20:52 9,0 C 7,8 C 7,8 C 98 % 1017,1 hPa 0,0 l/m 0 min 2 min 0 W/m 12,9 km/h (3 Bft) 100,00 %
23.09.2018 20:54 8,9 C 7,8 C 7,8 C 98 % 1017,2 hPa 0,0 l/m 0 min 2 min 0 W/m 6,4 km/h (2 Bft) 100,00 %
23.09.2018 20:56 8,9 C 7,8 C 7,8 C 98 % 1017,2 hPa 0,0 l/m 0 min 2 min 0 W/m 16,1 km/h (3 Bft) 93,62 %
23.09.2018 20:58 8,9 C 7,8 C 7,8 C 98 % 1017,2 hPa 0,0 l/m 0 min 2 min 0 W/m 9,7 km/h (2 Bft) 100,00 %
23.09.2018 21:00 8,9 C 7,8 C 7,8 C 98 % 1017,2 hPa 0,0 l/m 0 min 2 min 0 W/m 16,1 km/h (3 Bft) 97,87 %
23.09.2018 21:02 8,9 C 7,8 C 7,8 C 98 % 1017,2 hPa 0,0 l/m 0 min 0 min 0 W/m 9,7 km/h (2 Bft) 97,83 %
23.09.2018 21:04 8,9 C 7,8 C 7,8 C 98 % 1017,2 hPa 0,0 l/m 0 min 2 min 0 W/m 12,9 km/h (3 Bft) 97,87 %
23.09.2018 21:08 8,9 C 7,8 C 7,8 C 98 % 1017,2 hPa 0,0 l/m 0 min 4 min 0 W/m 12,9 km/h (3 Bft) 98,94 %
23.09.2018 21:10 8,9 C 7,8 C 7,8 C 98 % 1017,2 hPa 0,0 l/m 0 min 0 min 0 W/m 16,1 km/h (3 Bft) 100,00 %
23.09.2018 21:12 8,9 C 7,8 C 7,8 C 98 % 1017,4 hPa 0,0 l/m 0 min 0 min 0 W/m 12,9 km/h (3 Bft) 100,00 %
23.09.2018 21:14 8,9 C 7,8 C 7,8 C 98 % 1017,4 hPa 0,0 l/m 0 min 0 min 0 W/m 19,3 km/h (3 Bft) 97,87 %
23.09.2018 21:16 8,9 C 7,8 C 7,8 C 98 % 1017,4 hPa 0,0 l/m 0 min 0 min 0 W/m 9,7 km/h (2 Bft) 97,87 %
23.09.2018 21:18 8,9 C 7,8 C 7,8 C 98 % 1017,5 hPa 0,0 l/m 0 min 0 min 0 W/m 6,4 km/h (2 Bft) 97,87 %
23.09.2018 21:20 8,8 C 7,8 C 7,8 C 98 % 1017,5 hPa 0,0 l/m 0 min 0 min 0 W/m 9,7 km/h (2 Bft) 97,87 %
23.09.2018 21:22 8,8 C 7,8 C 7,8 C 98 % 1017,5 hPa 0,0 l/m 0 min 0 min 0 W/m 3,2 km/h (1 Bft) 97,87 %
23.09.2018 21:24 8,8 C 7,8 C 7,8 C 98 % 1017,6 hPa 0,0 l/m 0 min 0 min 0 W/m 0,0 km/h (0 Bft) 97,87 %
23.09.2018 21:26 8,8 C 7,8 C 7,8 C 98 % 1017,7 hPa 0,0 l/m 0 min 0 min 0 W/m 0,0 km/h (0 Bft) 95,74 %
23.09.2018 21:28 8,8 C 7,8 C 7,8 C 98 % 1017,8 hPa 0,0 l/m 0 min 0 min 0 W/m 0,0 km/h (0 Bft) 95,74 %
23.09.2018 21:30 8,8 C 7,8 C 7,8 C 98 % 1017,8 hPa 0,0 l/m 0 min 0 min 0 W/m 12,9 km/h (3 Bft) 97,83 %
23.09.2018 21:32 8,8 C 7,8 C 7,8 C 98 % 1018,0 hPa 0,0 l/m 0 min 0 min 0 W/m 12,9 km/h (3 Bft) 95,74 %
23.09.2018 21:34 8,8 C 7,8 C 7,8 C 98 % 1018,0 hPa 0,0 l/m 0 min 0 min 0 W/m 6,4 km/h (2 Bft) 97,87 %
23.09.2018 21:38 8,8 C 7,8 C 7,8 C 98 % 1018,2 hPa 0,0 l/m 0 min 0 min 0 W/m 6,4 km/h (2 Bft) 97,87 %
23.09.2018 21:40 8,8 C 7,8 C 7,8 C 98 % 1018,1 hPa 0,0 l/m 0 min 0 min 0 W/m 3,2 km/h (1 Bft) 97,87 %
23.09.2018 21:42 8,8 C 7,8 C 7,8 C 98 % 1018,3 hPa 0,0 l/m 0 min 0 min 0 W/m 3,2 km/h (1 Bft) 95,65 %
23.09.2018 21:44 8,8 C 7,8 C 7,8 C 98 % 1018,3 hPa 0,0 l/m 0 min 2 min 0 W/m 6,4 km/h (2 Bft) 95,74 %
23.09.2018 21:46 8,8 C 7,8 C 7,8 C 98 % 1018,5 hPa 0,0 l/m 0 min 0 min 0 W/m 6,4 km/h (2 Bft) 95,74 %
23.09.2018 21:48 8,8 C 7,8 C 7,8 C 98 % 1018,5 hPa 0,0 l/m 0 min 0 min 0 W/m 9,7 km/h (2 Bft) 97,87 %
23.09.2018 21:50 8,8 C 7,8 C 7,8 C 98 % 1018,5 hPa 0,0 l/m 0 min 0 min 0 W/m 0,0 km/h (0 Bft) 91,49 %
23.09.2018 21:52 8,8 C 7,8 C 7,8 C 98 % 1018,6 hPa 0,0 l/m 0 min 2 min 0 W/m 9,7 km/h (2 Bft) 93,62 %
23.09.2018 21:54 8,8 C 7,8 C 7,8 C 98 % 1018,5 hPa 0,0 l/m 0 min 0 min 0 W/m 9,7 km/h (2 Bft) 95,65 %
23.09.2018 21:56 8,8 C 8,3 C 7,8 C 98 % 1018,7 hPa 0,0 l/m 0 min 0 min 0 W/m 6,4 km/h (2 Bft) 93,62 %
23.09.2018 21:58 8,8 C 7,8 C 7,8 C 98 % 1018,8 hPa 0,0 l/m 0 min 2 min 0 W/m 9,7 km/h (2 Bft) 95,74 %
23.09.2018 22:00 8,8 C 7,8 C 7,8 C 98 % 1018,8 hPa 0,0 l/m 0 min 2 min 0 W/m 6,4 km/h (2 Bft) 97,87 %
23.09.2018 22:02 8,8 C 7,8 C 7,8 C 98 % 1019,0 hPa 0,0 l/m 0 min 0 min 0 W/m 6,4 km/h (2 Bft) 97,87 %
23.09.2018 22:04 8,9 C 8,3 C 7,8 C 98 % 1019,0 hPa 0,0 l/m 0 min 0 min 0 W/m 9,7 km/h (2 Bft) 93,62 %
23.09.2018 22:08 8,9 C 8,3 C 8,3 C 98 % 1019,1 hPa 0,0 l/m 0 min 4 min 0 W/m 9,7 km/h (2 Bft) 97,85 %
23.09.2018 22:10 8,9 C 8,3 C 8,3 C 98 % 1019,1 hPa 0,0 l/m 0 min 2 min 0 W/m 16,1 km/h (3 Bft) 95,74 %
23.09.2018 22:12 8,9 C 8,3 C 8,3 C 98 % 1019,2 hPa 0,0 l/m 0 min 2 min 0 W/m 9,7 km/h (2 Bft) 97,87 %
23.09.2018 22:14 8,9 C 8,3 C 7,8 C 98 % 1019,3 hPa 0,0 l/m 0 min 2 min 0 W/m 9,7 km/h (2 Bft) 97,87 %
23.09.2018 22:16 8,9 C 7,8 C 7,8 C 98 % 1019,2 hPa 0,0 l/m 0 min 2 min 0 W/m 9,7 km/h (2 Bft) 97,87 %
23.09.2018 22:18 8,9 C 8,3 C 7,8 C 98 % 1019,3 hPa 0,0 l/m 0 min 0 min 0 W/m 6,4 km/h (2 Bft) 95,65 %
23.09.2018 22:20 8,9 C 8,3 C 7,8 C 98 % 1019,2 hPa 0,0 l/m 0 min 0 min 0 W/m 9,7 km/h (2 Bft) 95,74 %
23.09.2018 22:22 8,9 C 8,3 C 7,8 C 98 % 1019,3 hPa 0,0 l/m 0 min 0 min 0 W/m 6,4 km/h (2 Bft) 95,74 %
23.09.2018 22:24 8,9 C 8,3 C 7,8 C 98 % 1019,3 hPa 0,0 l/m 0 min 2 min 0 W/m 3,2 km/h (1 Bft) 95,74 %
23.09.2018 22:26 8,9 C 8,3 C 8,3 C 98 % 1019,4 hPa 0,0 l/m 0 min 2 min 0 W/m 6,4 km/h (2 Bft) 97,87 %
23.09.2018 22:28 8,9 C 8,3 C 7,8 C 98 % 1019,5 hPa 0,0 l/m 0 min 0 min 0 W/m 3,2 km/h (1 Bft) 97,87 %
23.09.2018 22:30 8,9 C 8,3 C 7,8 C 98 % 1019,5 hPa 0,0 l/m 0 min 0 min 0 W/m 9,7 km/h (2 Bft) 97,83 %
23.09.2018 22:32 8,9 C 8,3 C 7,8 C 98 % 1019,5 hPa 0,0 l/m 0 min 0 min 0 W/m 6,4 km/h (2 Bft) 97,87 %
23.09.2018 22:34 8,9 C 8,3 C 8,3 C 98 % 1019,5 hPa 0,0 l/m 0 min 0 min 0 W/m 6,4 km/h (2 Bft) 97,87 %
23.09.2018 22:38 8,9 C 8,3 C 8,3 C 98 % 1019,6 hPa 0,0 l/m 0 min 0 min 0 W/m 6,4 km/h (2 Bft) 97,87 %
23.09.2018 22:40 8,9 C 8,3 C 8,3 C 98 % 1019,6 hPa 0,0 l/m 0 min 2 min 0 W/m 6,4 km/h (2 Bft) 100,00 %
23.09.2018 22:42 8,9 C 8,3 C 8,3 C 98 % 1019,6 hPa 0,0 l/m 0 min 0 min 0 W/m 9,7 km/h (2 Bft) 100,00 %
23.09.2018 22:44 8,9 C 8,3 C 8,3 C 98 % 1019,6 hPa 0,0 l/m 0 min 0 min 0 W/m 3,2 km/h (1 Bft) 100,00 %
23.09.2018 22:46 8,9 C 8,3 C 8,3 C 98 % 1019,7 hPa 0,0 l/m 0 min 0 min 0 W/m 6,4 km/h (2 Bft) 97,87 %
23.09.2018 22:48 8,9 C 8,3 C 8,3 C 98 % 1019,7 hPa 0,0 l/m 0 min 0 min 0 W/m 6,4 km/h (2 Bft) 100,00 %
23.09.2018 22:50 8,9 C 8,3 C 8,3 C 98 % 1020,0 hPa 0,0 l/m 0 min 0 min 0 W/m 3,2 km/h (1 Bft) 100,00 %
23.09.2018 22:52 8,9 C 8,3 C 8,3 C 98 % 1019,9 hPa 0,0 l/m 0 min 0 min 0 W/m 3,2 km/h (1 Bft) 100,00 %
23.09.2018 22:54 8,9 C 7,8 C 7,8 C 98 % 1019,9 hPa 0,0 l/m 0 min 2 min 0 W/m 9,7 km/h (2 Bft) 100,00 %
23.09.2018 22:56 8,9 C 7,8 C 7,8 C 98 % 1019,9 hPa 0,0 l/m 0 min 0 min 0 W/m 6,4 km/h (2 Bft) 97,87 %
23.09.2018 22:58 8,9 C 7,8 C 7,8 C 98 % 1019,9 hPa 0,0 l/m 0 min 0 min 0 W/m 3,2 km/h (1 Bft) 100,00 %
23.09.2018 23:00 8,9 C 7,8 C 7,8 C 98 % 1020,1 hPa 0,0 l/m 0 min 0 min 0 W/m 3,2 km/h (1 Bft) 97,87 %
23.09.2018 23:02 8,9 C 7,8 C 7,8 C 98 % 1020,1 hPa 0,0 l/m 0 min 0 min 0 W/m 9,7 km/h (2 Bft) 95,74 %
23.09.2018 23:04 8,9 C 7,8 C 7,8 C 98 % 1020,3 hPa 0,0 l/m 0 min 0 min 0 W/m 3,2 km/h (1 Bft) 97,83 %
23.09.2018 23:08 8,9 C 7,8 C 7,8 C 98 % 1020,4 hPa 0,0 l/m 0 min 0 min 0 W/m 9,7 km/h (2 Bft) 97,00 %
23.09.2018 23:10 8,9 C 7,8 C 7,8 C 98 % 1020,5 hPa 0,0 l/m 0 min 0 min 0 W/m 9,7 km/h (2 Bft) 97,87 %
23.09.2018 23:12 8,8 C 7,8 C 7,8 C 98 % 1020,4 hPa 0,0 l/m 0 min 0 min 0 W/m 6,4 km/h (2 Bft) 97,87 %
23.09.2018 23:14 8,8 C 7,8 C 7,8 C 98 % 1020,5 hPa 0,0 l/m 0 min 0 min 0 W/m 3,2 km/h (1 Bft) 97,87 %
23.09.2018 23:16 8,8 C 7,8 C 7,8 C 98 % 1020,5 hPa 0,0 l/m 0 min 0 min 0 W/m 3,2 km/h (1 Bft) 97,87 %
23.09.2018 23:18 8,8 C 7,8 C 7,8 C 98 % 1020,5 hPa 0,0 l/m 0 min 0 min 0 W/m 6,4 km/h (2 Bft) 97,83 %
23.09.2018 23:20 8,8 C 7,8 C 7,8 C 98 % 1020,6 hPa 0,0 l/m 0 min 0 min 0 W/m 6,4 km/h (2 Bft) 97,87 %
23.09.2018 23:22 8,8 C 7,8 C 7,8 C 98 % 1020,7 hPa 0,0 l/m 0 min 0 min 0 W/m 9,7 km/h (2 Bft) 97,87 %
23.09.2018 23:24 8,8 C 7,8 C 7,8 C 98 % 1020,7 hPa 0,0 l/m 0 min 0 min 0 W/m 3,2 km/h (1 Bft) 97,87 %
23.09.2018 23:26 8,8 C 7,8 C 7,8 C 98 % 1020,8 hPa 0,0 l/m 0 min 0 min 0 W/m 0,0 km/h (0 Bft) 95,74 %
23.09.2018 23:28 8,7 C 7,8 C 7,8 C 98 % 1020,9 hPa 0,0 l/m 0 min 0 min 0 W/m 0,0 km/h (0 Bft) 97,87 %
23.09.2018 23:30 8,7 C 7,8 C 7,8 C 98 % 1020,9 hPa 0,0 l/m 0 min 0 min 0 W/m 0,0 km/h (0 Bft) 97,83 %
23.09.2018 23:32 8,7 C 7,8 C 7,8 C 98 % 1020,9 hPa 0,2 l/m 0 min 0 min 0 W/m 16,1 km/h (3 Bft) 97,87 %
23.09.2018 23:34 8,7 C 7,8 C 7,8 C 98 % 1020,9 hPa 0,0 l/m 0 min 0 min 0 W/m 6,4 km/h (2 Bft) 97,87 %
23.09.2018 23:38 8,7 C 7,8 C 7,8 C 98 % 1020,9 hPa 0,0 l/m 0 min 0 min 0 W/m 3,2 km/h (1 Bft) 97,87 %
23.09.2018 23:40 8,7 C 7,8 C 7,8 C 98 % 1020,9 hPa 0,0 l/m 0 min 0 min 0 W/m 6,4 km/h (2 Bft) 95,74 %
23.09.2018 23:42 8,7 C 7,8 C 7,8 C 98 % 1021,1 hPa 0,0 l/m 0 min 0 min 0 W/m 12,9 km/h (3 Bft) 91,30 %
23.09.2018 23:44 8,7 C 7,8 C 7,8 C 98 % 1021,2 hPa 0,0 l/m 0 min 0 min 0 W/m 12,9 km/h (3 Bft) 97,87 %
23.09.2018 23:46 8,7 C 7,8 C 7,8 C 98 % 1021,1 hPa 0,0 l/m 0 min 0 min 0 W/m 9,7 km/h (2 Bft) 97,87 %
23.09.2018 23:48 8,7 C 7,8 C 7,8 C 98 % 1021,2 hPa 0,0 l/m 0 min 0 min 0 W/m 0,0 km/h (0 Bft) 95,74 %
23.09.2018 23:50 8,7 C 7,8 C 7,8 C 98 % 1021,3 hPa 0,0 l/m 0 min 0 min 0 W/m 12,9 km/h (3 Bft) 95,74 %
23.09.2018 23:52 8,6 C 7,8 C 7,8 C 98 % 1021,3 hPa 0,0 l/m 0 min 0 min 0 W/m 12,9 km/h (3 Bft) 95,74 %
23.09.2018 23:54 8,6 C 7,8 C 7,8 C 98 % 1021,4 hPa 0,0 l/m 0 min 0 min 0 W/m 12,9 km/h (3 Bft) 97,22 %
23.09.2018 23:56 8,6 C 7,8 C 7,8 C 98 % 1021,4 hPa 0,0 l/m 0 min 0 min 0 W/m 6,4 km/h (2 Bft) 96,55 %
23.09.2018 23:58 8,6 C 7,8 C 7,8 C 98 % 1021,4 hPa 0,0 l/m 0 min 0 min 0 W/m 3,2 km/h (1 Bft) 95,74 %
_ Min-Zeit 23:52 20:44 20:34 00:00 13:42 - - - - 00:02 00:02
Minimum _ 8,6 C 7,8 C 7,8 C 95 % 1004,6 hPa - - - - 0,0 km/h (0 Bft) 20,00 %
_ Max-Zeit 11:48 10:02 09:58 11:56 23:54 12:35 00:00 12:40 16:34 14:44 00:44
Maximum _ 12,1 C 11,7 C 11,1 C 99 % 1021,4 hPa 0,6 l/m 0 min 5 min 169 W/m 38,6 km/h
O-NO (5 Bft)
100,00 %
Durchschnitt _ 10,6 C 9,8 C 9,8 C 98 % 1011,6 hPa #14,4 l/m #0 min. #13:24 h 54 W/m 9,0 km/h (2 Bft) 96,19 %
© 2018 W. Hausmann